<?xml version="1.0" encoding="UTF-8" standalone="no" ?>
<gpx xmlns="http://www.topografix.com/GPX/1/1" xmlns:xsi="http://www.w3.org/2001/XMLSchema-instance" xsi:schemaLocation="http://www.topografix.com/GPX/1/1 http://www.topografix.com/GPX/1/1/gpx.xsd" version="1.1" creator="VisuGPX - https://www.visugpx.com">
  <metadata>
    <name>Jour 6</name>
  </metadata>
  <trk>
    <name><![CDATA[Jour 6_2]]></name>
    <trkseg>
      <trkpt lat="42.3418" lon="-1.41025">
        <ele>379.66</ele>
        <time>2021-08-04T08:51:55Z</time>
      </trkpt>
      <trkpt lat="42.3411" lon="-1.41085">
        <ele>383.37</ele>
        <time>2021-08-04T08:52:06Z</time>
      </trkpt>
      <trkpt lat="42.34066" lon="-1.41122">
        <ele>384.59</ele>
        <time>2021-08-04T08:52:12Z</time>
      </trkpt>
      <trkpt lat="42.34015" lon="-1.41132">
        <ele>385.19</ele>
        <time>2021-08-04T08:52:17Z</time>
      </trkpt>
      <trkpt lat="42.33905" lon="-1.41134">
        <ele>385.97</ele>
        <time>2021-08-04T08:52:26Z</time>
      </trkpt>
      <trkpt lat="42.3386" lon="-1.41161">
        <ele>386.22</ele>
        <time>2021-08-04T08:52:30Z</time>
      </trkpt>
      <trkpt lat="42.33768" lon="-1.41269">
        <ele>387.6</ele>
        <time>2021-08-04T08:52:39Z</time>
      </trkpt>
      <trkpt lat="42.33724" lon="-1.41299">
        <ele>387.83</ele>
        <time>2021-08-04T08:52:43Z</time>
      </trkpt>
      <trkpt lat="42.33568" lon="-1.4136">
        <ele>388.98</ele>
        <time>2021-08-04T08:52:56Z</time>
      </trkpt>
      <trkpt lat="42.33493" lon="-1.41393">
        <ele>389.83</ele>
        <time>2021-08-04T08:53:03Z</time>
      </trkpt>
      <trkpt lat="42.33407" lon="-1.41379">
        <ele>390.66</ele>
        <time>2021-08-04T08:53:10Z</time>
      </trkpt>
      <trkpt lat="42.33159" lon="-1.41295">
        <ele>393.65</ele>
        <time>2021-08-04T08:53:29Z</time>
      </trkpt>
      <trkpt lat="42.32994" lon="-1.41243">
        <ele>396.84</ele>
        <time>2021-08-04T08:53:41Z</time>
      </trkpt>
      <trkpt lat="42.32806" lon="-1.41182">
        <ele>399.84</ele>
        <time>2021-08-04T08:53:54Z</time>
      </trkpt>
      <trkpt lat="42.32622" lon="-1.41121">
        <ele>400.35</ele>
        <time>2021-08-04T08:54:08Z</time>
      </trkpt>
      <trkpt lat="42.32519" lon="-1.41114">
        <ele>401.03</ele>
        <time>2021-08-04T08:54:16Z</time>
      </trkpt>
      <trkpt lat="42.32361" lon="-1.41129">
        <ele>403.63</ele>
        <time>2021-08-04T08:54:27Z</time>
      </trkpt>
      <trkpt lat="42.32178" lon="-1.41144">
        <ele>406.73</ele>
        <time>2021-08-04T08:54:41Z</time>
      </trkpt>
      <trkpt lat="42.32167" lon="-1.41145">
        <ele>406.86</ele>
        <time>2021-08-04T08:54:42Z</time>
      </trkpt>
      <trkpt lat="42.32101" lon="-1.41179">
        <ele>407.97</ele>
        <time>2021-08-04T08:54:49Z</time>
      </trkpt>
      <trkpt lat="42.31965" lon="-1.41144">
        <ele>409.52</ele>
        <time>2021-08-04T08:55:00Z</time>
      </trkpt>
      <trkpt lat="42.31844" lon="-1.41162">
        <ele>411.69</ele>
        <time>2021-08-04T08:55:08Z</time>
      </trkpt>
      <trkpt lat="42.31756" lon="-1.4118">
        <ele>412.87</ele>
        <time>2021-08-04T08:55:14Z</time>
      </trkpt>
      <trkpt lat="42.31685" lon="-1.41219">
        <ele>413.5</ele>
        <time>2021-08-04T08:55:19Z</time>
      </trkpt>
      <trkpt lat="42.31543" lon="-1.41349">
        <ele>410.33</ele>
        <time>2021-08-04T08:55:29Z</time>
      </trkpt>
      <trkpt lat="42.31438" lon="-1.41443">
        <ele>407.86</ele>
        <time>2021-08-04T08:55:37Z</time>
      </trkpt>
      <trkpt lat="42.31346" lon="-1.41466">
        <ele>406.17</ele>
        <time>2021-08-04T08:55:43Z</time>
      </trkpt>
      <trkpt lat="42.31258" lon="-1.41479">
        <ele>405.08</ele>
        <time>2021-08-04T08:55:49Z</time>
      </trkpt>
      <trkpt lat="42.31121" lon="-1.415">
        <ele>405.23</ele>
        <time>2021-08-04T08:55:57Z</time>
      </trkpt>
      <trkpt lat="42.30983" lon="-1.41559">
        <ele>406.69</ele>
        <time>2021-08-04T08:56:05Z</time>
      </trkpt>
      <trkpt lat="42.30842" lon="-1.4161">
        <ele>407.96</ele>
        <time>2021-08-04T08:56:13Z</time>
      </trkpt>
      <trkpt lat="42.30642" lon="-1.41657">
        <ele>408.56</ele>
        <time>2021-08-04T08:56:26Z</time>
      </trkpt>
      <trkpt lat="42.30558" lon="-1.41675">
        <ele>408.6</ele>
        <time>2021-08-04T08:56:35Z</time>
      </trkpt>
      <trkpt lat="42.30478" lon="-1.41682">
        <ele>408.38</ele>
        <time>2021-08-04T08:56:45Z</time>
      </trkpt>
      <trkpt lat="42.30356" lon="-1.41705">
        <ele>408.97</ele>
        <time>2021-08-04T08:56:55Z</time>
      </trkpt>
      <trkpt lat="42.30206" lon="-1.41738">
        <ele>408.42</ele>
        <time>2021-08-04T08:57:06Z</time>
      </trkpt>
      <trkpt lat="42.30152" lon="-1.4179">
        <ele>407.03</ele>
        <time>2021-08-04T08:57:11Z</time>
      </trkpt>
      <trkpt lat="42.30147" lon="-1.41825">
        <ele>406.46</ele>
        <time>2021-08-04T08:57:13Z</time>
      </trkpt>
      <trkpt lat="42.30143" lon="-1.41888">
        <ele>405.46</ele>
        <time>2021-08-04T08:57:17Z</time>
      </trkpt>
      <trkpt lat="42.30095" lon="-1.42041">
        <ele>402.05</ele>
        <time>2021-08-04T08:57:27Z</time>
      </trkpt>
      <trkpt lat="42.30065" lon="-1.42128">
        <ele>400.09</ele>
        <time>2021-08-04T08:57:33Z</time>
      </trkpt>
      <trkpt lat="42.30024" lon="-1.4217">
        <ele>398.62</ele>
        <time>2021-08-04T08:57:37Z</time>
      </trkpt>
      <trkpt lat="42.29958" lon="-1.42213">
        <ele>397.63</ele>
        <time>2021-08-04T08:57:42Z</time>
      </trkpt>
      <trkpt lat="42.2985" lon="-1.42242">
        <ele>395.29</ele>
        <time>2021-08-04T08:57:50Z</time>
      </trkpt>
      <trkpt lat="42.29837" lon="-1.42241">
        <ele>395</ele>
        <time>2021-08-04T08:57:51Z</time>
      </trkpt>
      <trkpt lat="42.29738" lon="-1.42203">
        <ele>392.17</ele>
        <time>2021-08-04T08:57:59Z</time>
      </trkpt>
      <trkpt lat="42.29664" lon="-1.42164">
        <ele>388.91</ele>
        <time>2021-08-04T08:58:06Z</time>
      </trkpt>
      <trkpt lat="42.29641" lon="-1.42148">
        <ele>388.12</ele>
        <time>2021-08-04T08:58:08Z</time>
      </trkpt>
      <trkpt lat="42.29549" lon="-1.4211">
        <ele>386.81</ele>
        <time>2021-08-04T08:58:15Z</time>
      </trkpt>
      <trkpt lat="42.29458" lon="-1.42057">
        <ele>386.79</ele>
        <time>2021-08-04T08:58:22Z</time>
      </trkpt>
      <trkpt lat="42.29382" lon="-1.41972">
        <ele>385.33</ele>
        <time>2021-08-04T08:58:29Z</time>
      </trkpt>
      <trkpt lat="42.29313" lon="-1.41854">
        <ele>384.76</ele>
        <time>2021-08-04T08:58:37Z</time>
      </trkpt>
      <trkpt lat="42.29306" lon="-1.4184">
        <ele>384.8</ele>
        <time>2021-08-04T08:58:38Z</time>
      </trkpt>
      <trkpt lat="42.29256" lon="-1.4181">
        <ele>385.21</ele>
        <time>2021-08-04T08:58:43Z</time>
      </trkpt>
      <trkpt lat="42.29242" lon="-1.41815">
        <ele>385.29</ele>
        <time>2021-08-04T08:58:44Z</time>
      </trkpt>
      <trkpt lat="42.29202" lon="-1.41826">
        <ele>386.07</ele>
        <time>2021-08-04T08:58:47Z</time>
      </trkpt>
      <trkpt lat="42.29088" lon="-1.41798">
        <ele>387.29</ele>
        <time>2021-08-04T08:58:55Z</time>
      </trkpt>
      <trkpt lat="42.28968" lon="-1.41744">
        <ele>387.92</ele>
        <time>2021-08-04T08:59:03Z</time>
      </trkpt>
      <trkpt lat="42.28817" lon="-1.41758">
        <ele>387.16</ele>
        <time>2021-08-04T08:59:12Z</time>
      </trkpt>
      <trkpt lat="42.28582" lon="-1.41788">
        <ele>384.26</ele>
        <time>2021-08-04T08:59:27Z</time>
      </trkpt>
      <trkpt lat="42.28532" lon="-1.41781">
        <ele>383.83</ele>
        <time>2021-08-04T08:59:31Z</time>
      </trkpt>
      <trkpt lat="42.2849" lon="-1.41756">
        <ele>383.42</ele>
        <time>2021-08-04T08:59:35Z</time>
      </trkpt>
      <trkpt lat="42.28429" lon="-1.4171">
        <ele>382.35</ele>
        <time>2021-08-04T08:59:41Z</time>
      </trkpt>
      <trkpt lat="42.28366" lon="-1.41697">
        <ele>380.68</ele>
        <time>2021-08-04T08:59:46Z</time>
      </trkpt>
      <trkpt lat="42.28263" lon="-1.41641">
        <ele>379.79</ele>
        <time>2021-08-04T08:59:54Z</time>
      </trkpt>
      <trkpt lat="42.28153" lon="-1.41615">
        <ele>379.83</ele>
        <time>2021-08-04T09:00:02Z</time>
      </trkpt>
      <trkpt lat="42.28001" lon="-1.41587">
        <ele>379.57</ele>
        <time>2021-08-04T09:00:12Z</time>
      </trkpt>
      <trkpt lat="42.27812" lon="-1.41571">
        <ele>376.5</ele>
        <time>2021-08-04T09:00:25Z</time>
      </trkpt>
      <trkpt lat="42.27707" lon="-1.41533">
        <ele>374.05</ele>
        <time>2021-08-04T09:00:33Z</time>
      </trkpt>
      <trkpt lat="42.27594" lon="-1.41547">
        <ele>373.18</ele>
        <time>2021-08-04T09:00:41Z</time>
      </trkpt>
      <trkpt lat="42.27422" lon="-1.41575">
        <ele>374.17</ele>
        <time>2021-08-04T09:00:52Z</time>
      </trkpt>
      <trkpt lat="42.27396" lon="-1.41578">
        <ele>374.14</ele>
        <time>2021-08-04T09:00:54Z</time>
      </trkpt>
      <trkpt lat="42.27338" lon="-1.41628">
        <ele>373.95</ele>
        <time>2021-08-04T09:01:00Z</time>
      </trkpt>
      <trkpt lat="42.27282" lon="-1.41635">
        <ele>373.26</ele>
        <time>2021-08-04T09:01:05Z</time>
      </trkpt>
      <trkpt lat="42.27213" lon="-1.41659">
        <ele>372.33</ele>
        <time>2021-08-04T09:01:11Z</time>
      </trkpt>
      <trkpt lat="42.27204" lon="-1.41668">
        <ele>372.08</ele>
        <time>2021-08-04T09:01:12Z</time>
      </trkpt>
      <trkpt lat="42.27139" lon="-1.4169">
        <ele>370.37</ele>
        <time>2021-08-04T09:01:18Z</time>
      </trkpt>
      <trkpt lat="42.27033" lon="-1.41669">
        <ele>366.83</ele>
        <time>2021-08-04T09:01:28Z</time>
      </trkpt>
      <trkpt lat="42.26933" lon="-1.41673">
        <ele>363.63</ele>
        <time>2021-08-04T09:01:36Z</time>
      </trkpt>
      <trkpt lat="42.26849" lon="-1.41713">
        <ele>361.83</ele>
        <time>2021-08-04T09:01:44Z</time>
      </trkpt>
      <trkpt lat="42.26782" lon="-1.41755">
        <ele>361.53</ele>
        <time>2021-08-04T09:01:51Z</time>
      </trkpt>
      <trkpt lat="42.26715" lon="-1.4184">
        <ele>360.89</ele>
        <time>2021-08-04T09:02:00Z</time>
      </trkpt>
      <trkpt lat="42.26709" lon="-1.4185">
        <ele>360.88</ele>
        <time>2021-08-04T09:02:01Z</time>
      </trkpt>
      <trkpt lat="42.26654" lon="-1.41878">
        <ele>361.42</ele>
        <time>2021-08-04T09:02:07Z</time>
      </trkpt>
      <trkpt lat="42.26557" lon="-1.41869">
        <ele>364.27</ele>
        <time>2021-08-04T09:02:17Z</time>
      </trkpt>
      <trkpt lat="42.26518" lon="-1.4185">
        <ele>365.7</ele>
        <time>2021-08-04T09:02:21Z</time>
      </trkpt>
      <trkpt lat="42.2648" lon="-1.41844">
        <ele>366.29</ele>
        <time>2021-08-04T09:02:25Z</time>
      </trkpt>
      <trkpt lat="42.26349" lon="-1.41856">
        <ele>366.32</ele>
        <time>2021-08-04T09:02:36Z</time>
      </trkpt>
      <trkpt lat="42.26199" lon="-1.41894">
        <ele>366.46</ele>
        <time>2021-08-04T09:02:48Z</time>
      </trkpt>
      <trkpt lat="42.26187" lon="-1.41896">
        <ele>366.49</ele>
        <time>2021-08-04T09:02:49Z</time>
      </trkpt>
      <trkpt lat="42.26023" lon="-1.41882">
        <ele>367.3</ele>
        <time>2021-08-04T09:03:02Z</time>
      </trkpt>
      <trkpt lat="42.25897" lon="-1.41871">
        <ele>367.88</ele>
        <time>2021-08-04T09:03:13Z</time>
      </trkpt>
      <trkpt lat="42.25788" lon="-1.41848">
        <ele>368.04</ele>
        <time>2021-08-04T09:03:24Z</time>
      </trkpt>
      <trkpt lat="42.25744" lon="-1.41837">
        <ele>368.31</ele>
        <time>2021-08-04T09:03:28Z</time>
      </trkpt>
      <trkpt lat="42.25711" lon="-1.41809">
        <ele>368.7</ele>
        <time>2021-08-04T09:03:32Z</time>
      </trkpt>
      <trkpt lat="42.25655" lon="-1.4172">
        <ele>369</ele>
        <time>2021-08-04T09:03:43Z</time>
      </trkpt>
      <trkpt lat="42.25581" lon="-1.41609">
        <ele>370.61</ele>
        <time>2021-08-04T09:03:55Z</time>
      </trkpt>
      <trkpt lat="42.25563" lon="-1.41583">
        <ele>370.62</ele>
        <time>2021-08-04T09:03:58Z</time>
      </trkpt>
      <trkpt lat="42.25522" lon="-1.41516">
        <ele>369.94</ele>
        <time>2021-08-04T09:04:06Z</time>
      </trkpt>
      <trkpt lat="42.25493" lon="-1.41523">
        <ele>369.58</ele>
        <time>2021-08-04T09:04:10Z</time>
      </trkpt>
      <trkpt lat="42.25403" lon="-1.41595">
        <ele>368.87</ele>
        <time>2021-08-04T09:04:20Z</time>
      </trkpt>
      <trkpt lat="42.25385" lon="-1.4161">
        <ele>368.81</ele>
        <time>2021-08-04T09:04:22Z</time>
      </trkpt>
      <trkpt lat="42.25369" lon="-1.41627">
        <ele>368.74</ele>
        <time>2021-08-04T09:04:24Z</time>
      </trkpt>
      <trkpt lat="42.25301" lon="-1.41737">
        <ele>368.97</ele>
        <time>2021-08-04T09:04:35Z</time>
      </trkpt>
      <trkpt lat="42.25256" lon="-1.41779">
        <ele>368.96</ele>
        <time>2021-08-04T09:04:41Z</time>
      </trkpt>
      <trkpt lat="42.25235" lon="-1.41814">
        <ele>368.68</ele>
        <time>2021-08-04T09:04:45Z</time>
      </trkpt>
      <trkpt lat="42.25186" lon="-1.41894">
        <ele>368.89</ele>
        <time>2021-08-04T09:04:55Z</time>
      </trkpt>
      <trkpt lat="42.25177" lon="-1.41944">
        <ele>369.29</ele>
        <time>2021-08-04T09:05:00Z</time>
      </trkpt>
      <trkpt lat="42.25179" lon="-1.41985">
        <ele>369.37</ele>
        <time>2021-08-04T09:05:04Z</time>
      </trkpt>
      <trkpt lat="42.25197" lon="-1.42035">
        <ele>369.72</ele>
        <time>2021-08-04T09:05:09Z</time>
      </trkpt>
      <trkpt lat="42.25214" lon="-1.42067">
        <ele>369.67</ele>
        <time>2021-08-04T09:05:12Z</time>
      </trkpt>
      <trkpt lat="42.25223" lon="-1.42116">
        <ele>368.85</ele>
        <time>2021-08-04T09:05:16Z</time>
      </trkpt>
      <trkpt lat="42.25238" lon="-1.42248">
        <ele>367.66</ele>
        <time>2021-08-04T09:05:26Z</time>
      </trkpt>
      <trkpt lat="42.25245" lon="-1.42392">
        <ele>367.57</ele>
        <time>2021-08-04T09:05:37Z</time>
      </trkpt>
      <trkpt lat="42.25253" lon="-1.42514">
        <ele>367.05</ele>
        <time>2021-08-04T09:05:48Z</time>
      </trkpt>
      <trkpt lat="42.25285" lon="-1.42634">
        <ele>366.4</ele>
        <time>2021-08-04T09:05:58Z</time>
      </trkpt>
      <trkpt lat="42.25316" lon="-1.42763">
        <ele>365.07</ele>
        <time>2021-08-04T09:06:09Z</time>
      </trkpt>
      <trkpt lat="42.25361" lon="-1.42858">
        <ele>363.57</ele>
        <time>2021-08-04T09:06:20Z</time>
      </trkpt>
      <trkpt lat="42.25354" lon="-1.4291">
        <ele>363.68</ele>
        <time>2021-08-04T09:06:26Z</time>
      </trkpt>
      <trkpt lat="42.25338" lon="-1.42924">
        <ele>363.97</ele>
        <time>2021-08-04T09:06:28Z</time>
      </trkpt>
      <trkpt lat="42.25247" lon="-1.42991">
        <ele>363.07</ele>
        <time>2021-08-04T09:06:39Z</time>
      </trkpt>
      <trkpt lat="42.25221" lon="-1.43036">
        <ele>362.82</ele>
        <time>2021-08-04T09:06:44Z</time>
      </trkpt>
      <trkpt lat="42.25204" lon="-1.4308">
        <ele>362.42</ele>
        <time>2021-08-04T09:06:48Z</time>
      </trkpt>
      <trkpt lat="42.25175" lon="-1.43106">
        <ele>361.4</ele>
        <time>2021-08-04T09:06:52Z</time>
      </trkpt>
      <trkpt lat="42.25124" lon="-1.43116">
        <ele>360.23</ele>
        <time>2021-08-04T09:06:58Z</time>
      </trkpt>
      <trkpt lat="42.25044" lon="-1.43088">
        <ele>358.27</ele>
        <time>2021-08-04T09:07:07Z</time>
      </trkpt>
      <trkpt lat="42.24923" lon="-1.43106">
        <ele>355.23</ele>
        <time>2021-08-04T09:07:19Z</time>
      </trkpt>
      <trkpt lat="42.24759" lon="-1.43123">
        <ele>352.78</ele>
        <time>2021-08-04T09:07:36Z</time>
      </trkpt>
      <trkpt lat="42.24723" lon="-1.43131">
        <ele>352.5</ele>
        <time>2021-08-04T09:07:40Z</time>
      </trkpt>
      <trkpt lat="42.2469" lon="-1.43159">
        <ele>352.01</ele>
        <time>2021-08-04T09:07:44Z</time>
      </trkpt>
      <trkpt lat="42.24598" lon="-1.43305">
        <ele>349.34</ele>
        <time>2021-08-04T09:07:56Z</time>
      </trkpt>
      <trkpt lat="42.24581" lon="-1.43327">
        <ele>348.76</ele>
        <time>2021-08-04T09:07:58Z</time>
      </trkpt>
      <trkpt lat="42.24483" lon="-1.43385">
        <ele>346.36</ele>
        <time>2021-08-04T09:08:07Z</time>
      </trkpt>
      <trkpt lat="42.24367" lon="-1.4345">
        <ele>344.5</ele>
        <time>2021-08-04T09:08:19Z</time>
      </trkpt>
      <trkpt lat="42.24243" lon="-1.43521">
        <ele>345.04</ele>
        <time>2021-08-04T09:08:32Z</time>
      </trkpt>
      <trkpt lat="42.24204" lon="-1.43529">
        <ele>345.14</ele>
        <time>2021-08-04T09:08:36Z</time>
      </trkpt>
      <trkpt lat="42.24171" lon="-1.43522">
        <ele>344.78</ele>
        <time>2021-08-04T09:08:39Z</time>
      </trkpt>
      <trkpt lat="42.24125" lon="-1.4353">
        <ele>343.78</ele>
        <time>2021-08-04T09:08:44Z</time>
      </trkpt>
      <trkpt lat="42.24091" lon="-1.4355">
        <ele>343.47</ele>
        <time>2021-08-04T09:08:48Z</time>
      </trkpt>
      <trkpt lat="42.23997" lon="-1.43655">
        <ele>344.44</ele>
        <time>2021-08-04T09:09:01Z</time>
      </trkpt>
      <trkpt lat="42.23894" lon="-1.43772">
        <ele>346.09</ele>
        <time>2021-08-04T09:09:15Z</time>
      </trkpt>
      <trkpt lat="42.23784" lon="-1.43883">
        <ele>347.01</ele>
        <time>2021-08-04T09:09:28Z</time>
      </trkpt>
      <trkpt lat="42.23677" lon="-1.4403">
        <ele>347.81</ele>
        <time>2021-08-04T09:09:42Z</time>
      </trkpt>
      <trkpt lat="42.23669" lon="-1.44041">
        <ele>348.05</ele>
        <time>2021-08-04T09:09:43Z</time>
      </trkpt>
      <trkpt lat="42.23609" lon="-1.44188">
        <ele>351.3</ele>
        <time>2021-08-04T09:09:55Z</time>
      </trkpt>
      <trkpt lat="42.23564" lon="-1.44309">
        <ele>352.86</ele>
        <time>2021-08-04T09:10:05Z</time>
      </trkpt>
      <trkpt lat="42.23567" lon="-1.44359">
        <ele>352.97</ele>
        <time>2021-08-04T09:10:10Z</time>
      </trkpt>
      <trkpt lat="42.23582" lon="-1.44408">
        <ele>352.82</ele>
        <time>2021-08-04T09:10:14Z</time>
      </trkpt>
      <trkpt lat="42.23588" lon="-1.44556">
        <ele>352.14</ele>
        <time>2021-08-04T09:10:24Z</time>
      </trkpt>
      <trkpt lat="42.23585" lon="-1.44614">
        <ele>351.52</ele>
        <time>2021-08-04T09:10:28Z</time>
      </trkpt>
      <trkpt lat="42.23552" lon="-1.44683">
        <ele>351.92</ele>
        <time>2021-08-04T09:10:34Z</time>
      </trkpt>
      <trkpt lat="42.23436" lon="-1.44782">
        <ele>350.45</ele>
        <time>2021-08-04T09:10:46Z</time>
      </trkpt>
      <trkpt lat="42.23363" lon="-1.44853">
        <ele>347.36</ele>
        <time>2021-08-04T09:10:53Z</time>
      </trkpt>
      <trkpt lat="42.23336" lon="-1.44892">
        <ele>346.62</ele>
        <time>2021-08-04T09:10:57Z</time>
      </trkpt>
      <trkpt lat="42.23292" lon="-1.45017">
        <ele>347.22</ele>
        <time>2021-08-04T09:11:07Z</time>
      </trkpt>
      <trkpt lat="42.23226" lon="-1.45119">
        <ele>348.68</ele>
        <time>2021-08-04T09:11:16Z</time>
      </trkpt>
      <trkpt lat="42.23117" lon="-1.45227">
        <ele>350.71</ele>
        <time>2021-08-04T09:11:28Z</time>
      </trkpt>
      <trkpt lat="42.23071" lon="-1.45278">
        <ele>350.55</ele>
        <time>2021-08-04T09:11:36Z</time>
      </trkpt>
      <trkpt lat="42.23029" lon="-1.45331">
        <ele>348.81</ele>
        <time>2021-08-04T09:11:46Z</time>
      </trkpt>
      <trkpt lat="42.23018" lon="-1.45355">
        <ele>348.47</ele>
        <time>2021-08-04T09:11:50Z</time>
      </trkpt>
      <trkpt lat="42.22996" lon="-1.45418">
        <ele>347.96</ele>
        <time>2021-08-04T09:11:58Z</time>
      </trkpt>
      <trkpt lat="42.22964" lon="-1.45446">
        <ele>346.8</ele>
        <time>2021-08-04T09:12:03Z</time>
      </trkpt>
      <trkpt lat="42.22888" lon="-1.45468">
        <ele>343.07</ele>
        <time>2021-08-04T09:12:11Z</time>
      </trkpt>
      <trkpt lat="42.22878" lon="-1.45471">
        <ele>342.37</ele>
        <time>2021-08-04T09:12:12Z</time>
      </trkpt>
      <trkpt lat="42.22817" lon="-1.45522">
        <ele>338.74</ele>
        <time>2021-08-04T09:12:19Z</time>
      </trkpt>
      <trkpt lat="42.22784" lon="-1.45539">
        <ele>336.94</ele>
        <time>2021-08-04T09:12:23Z</time>
      </trkpt>
      <trkpt lat="42.22685" lon="-1.45548">
        <ele>333.7</ele>
        <time>2021-08-04T09:12:33Z</time>
      </trkpt>
      <trkpt lat="42.22566" lon="-1.45557">
        <ele>330.71</ele>
        <time>2021-08-04T09:12:44Z</time>
      </trkpt>
      <trkpt lat="42.22466" lon="-1.45594">
        <ele>327.04</ele>
        <time>2021-08-04T09:12:54Z</time>
      </trkpt>
      <trkpt lat="42.22364" lon="-1.45627">
        <ele>324.01</ele>
        <time>2021-08-04T09:13:06Z</time>
      </trkpt>
      <trkpt lat="42.22305" lon="-1.45655">
        <ele>322.35</ele>
        <time>2021-08-04T09:13:16Z</time>
      </trkpt>
      <trkpt lat="42.22269" lon="-1.45676">
        <ele>320.89</ele>
        <time>2021-08-04T09:13:24Z</time>
      </trkpt>
      <trkpt lat="42.22152" lon="-1.4574">
        <ele>320.82</ele>
        <time>2021-08-04T09:13:38Z</time>
      </trkpt>
      <trkpt lat="42.22066" lon="-1.45824">
        <ele>320.85</ele>
        <time>2021-08-04T09:13:48Z</time>
      </trkpt>
      <trkpt lat="42.22026" lon="-1.45929">
        <ele>321.08</ele>
        <time>2021-08-04T09:13:56Z</time>
      </trkpt>
      <trkpt lat="42.22005" lon="-1.46093">
        <ele>319.47</ele>
        <time>2021-08-04T09:14:07Z</time>
      </trkpt>
      <trkpt lat="42.22001" lon="-1.46107">
        <ele>319.24</ele>
        <time>2021-08-04T09:14:08Z</time>
      </trkpt>
      <trkpt lat="42.21955" lon="-1.46165">
        <ele>316.73</ele>
        <time>2021-08-04T09:14:14Z</time>
      </trkpt>
      <trkpt lat="42.21933" lon="-1.46176">
        <ele>315.83</ele>
        <time>2021-08-04T09:14:16Z</time>
      </trkpt>
      <trkpt lat="42.2188" lon="-1.46229">
        <ele>313.88</ele>
        <time>2021-08-04T09:14:21Z</time>
      </trkpt>
      <trkpt lat="42.21813" lon="-1.46329">
        <ele>310.33</ele>
        <time>2021-08-04T09:14:29Z</time>
      </trkpt>
      <trkpt lat="42.21806" lon="-1.4634">
        <ele>309.77</ele>
        <time>2021-08-04T09:14:30Z</time>
      </trkpt>
      <trkpt lat="42.21768" lon="-1.46347">
        <ele>307.03</ele>
        <time>2021-08-04T09:14:36Z</time>
      </trkpt>
      <trkpt lat="42.2176" lon="-1.46317">
        <ele>306.52</ele>
        <time>2021-08-04T09:14:38Z</time>
      </trkpt>
      <trkpt lat="42.21681" lon="-1.46152">
        <ele>305.5</ele>
        <time>2021-08-04T09:14:52Z</time>
      </trkpt>
      <trkpt lat="42.21575" lon="-1.46019">
        <ele>305.68</ele>
        <time>2021-08-04T09:15:06Z</time>
      </trkpt>
      <trkpt lat="42.21502" lon="-1.45892">
        <ele>305.97</ele>
        <time>2021-08-04T09:15:19Z</time>
      </trkpt>
      <trkpt lat="42.21452" lon="-1.458">
        <ele>304.38</ele>
        <time>2021-08-04T09:15:29Z</time>
      </trkpt>
      <trkpt lat="42.21441" lon="-1.45783">
        <ele>304.31</ele>
        <time>2021-08-04T09:15:31Z</time>
      </trkpt>
      <trkpt lat="42.21412" lon="-1.45759">
        <ele>304.55</ele>
        <time>2021-08-04T09:15:35Z</time>
      </trkpt>
      <trkpt lat="42.21364" lon="-1.45732">
        <ele>305.58</ele>
        <time>2021-08-04T09:15:41Z</time>
      </trkpt>
      <trkpt lat="42.21335" lon="-1.45697">
        <ele>304.64</ele>
        <time>2021-08-04T09:15:49Z</time>
      </trkpt>
      <trkpt lat="42.21339" lon="-1.45701">
        <ele>303.11</ele>
        <time>2021-08-04T09:16:02Z</time>
      </trkpt>
      <trkpt lat="42.21304" lon="-1.45653">
        <ele>303.52</ele>
        <time>2021-08-04T09:16:10Z</time>
      </trkpt>
      <trkpt lat="42.2122" lon="-1.45545">
        <ele>304.73</ele>
        <time>2021-08-04T09:16:20Z</time>
      </trkpt>
      <trkpt lat="42.2113" lon="-1.45427">
        <ele>307.06</ele>
        <time>2021-08-04T09:16:32Z</time>
      </trkpt>
      <trkpt lat="42.2104" lon="-1.45303">
        <ele>307.35</ele>
        <time>2021-08-04T09:16:44Z</time>
      </trkpt>
      <trkpt lat="42.20948" lon="-1.45176">
        <ele>306.52</ele>
        <time>2021-08-04T09:16:56Z</time>
      </trkpt>
      <trkpt lat="42.2085" lon="-1.45048">
        <ele>305.73</ele>
        <time>2021-08-04T09:17:10Z</time>
      </trkpt>
      <trkpt lat="42.20773" lon="-1.44948">
        <ele>306.01</ele>
        <time>2021-08-04T09:17:23Z</time>
      </trkpt>
      <trkpt lat="42.20699" lon="-1.44849">
        <ele>308.95</ele>
        <time>2021-08-04T09:17:34Z</time>
      </trkpt>
      <trkpt lat="42.20606" lon="-1.44721">
        <ele>309.34</ele>
        <time>2021-08-04T09:17:46Z</time>
      </trkpt>
      <trkpt lat="42.2052" lon="-1.44606">
        <ele>310.73</ele>
        <time>2021-08-04T09:17:58Z</time>
      </trkpt>
      <trkpt lat="42.20472" lon="-1.44543">
        <ele>314.04</ele>
        <time>2021-08-04T09:18:06Z</time>
      </trkpt>
      <trkpt lat="42.20396" lon="-1.44449">
        <ele>316.87</ele>
        <time>2021-08-04T09:18:18Z</time>
      </trkpt>
      <trkpt lat="42.20329" lon="-1.44353">
        <ele>318.43</ele>
        <time>2021-08-04T09:18:30Z</time>
      </trkpt>
      <trkpt lat="42.20255" lon="-1.4425">
        <ele>318.99</ele>
        <time>2021-08-04T09:18:45Z</time>
      </trkpt>
      <trkpt lat="42.20197" lon="-1.44171">
        <ele>319.3</ele>
        <time>2021-08-04T09:18:58Z</time>
      </trkpt>
      <trkpt lat="42.2018" lon="-1.44138">
        <ele>319.39</ele>
        <time>2021-08-04T09:19:09Z</time>
      </trkpt>
      <trkpt lat="42.20178" lon="-1.44133">
        <ele>319.45</ele>
        <time>2021-08-04T09:19:11Z</time>
      </trkpt>
      <trkpt lat="42.20185" lon="-1.44125">
        <ele>319.63</ele>
        <time>2021-08-04T09:19:22Z</time>
      </trkpt>
      <trkpt lat="42.20185" lon="-1.44125">
        <ele>319.4</ele>
        <time>2021-08-04T09:21:45Z</time>
      </trkpt>
      <trkpt lat="42.20183" lon="-1.44135">
        <ele>319.54</ele>
        <time>2021-08-04T09:21:54Z</time>
      </trkpt>
      <trkpt lat="42.20172" lon="-1.44128">
        <ele>319.83</ele>
        <time>2021-08-04T09:22:12Z</time>
      </trkpt>
      <trkpt lat="42.20168" lon="-1.44124">
        <ele>319.85</ele>
        <time>2021-08-04T09:22:13Z</time>
      </trkpt>
      <trkpt lat="42.20164" lon="-1.4412">
        <ele>319.87</ele>
        <time>2021-08-04T09:22:14Z</time>
      </trkpt>
      <trkpt lat="42.20121" lon="-1.4406">
        <ele>320.07</ele>
        <time>2021-08-04T09:22:22Z</time>
      </trkpt>
      <trkpt lat="42.20051" lon="-1.43963">
        <ele>320.16</ele>
        <time>2021-08-04T09:22:35Z</time>
      </trkpt>
      <trkpt lat="42.19989" lon="-1.43881">
        <ele>320.62</ele>
        <time>2021-08-04T09:22:44Z</time>
      </trkpt>
      <trkpt lat="42.19927" lon="-1.43797">
        <ele>321.47</ele>
        <time>2021-08-04T09:22:53Z</time>
      </trkpt>
      <trkpt lat="42.19873" lon="-1.43715">
        <ele>322.3</ele>
        <time>2021-08-04T09:23:04Z</time>
      </trkpt>
      <trkpt lat="42.19862" lon="-1.4368">
        <ele>322.59</ele>
        <time>2021-08-04T09:23:08Z</time>
      </trkpt>
      <trkpt lat="42.19849" lon="-1.43555">
        <ele>325.14</ele>
        <time>2021-08-04T09:23:22Z</time>
      </trkpt>
      <trkpt lat="42.19847" lon="-1.43491">
        <ele>328.62</ele>
        <time>2021-08-04T09:23:31Z</time>
      </trkpt>
      <trkpt lat="42.19847" lon="-1.43449">
        <ele>331.85</ele>
        <time>2021-08-04T09:23:37Z</time>
      </trkpt>
      <trkpt lat="42.19845" lon="-1.43398">
        <ele>335.18</ele>
        <time>2021-08-04T09:23:44Z</time>
      </trkpt>
      <trkpt lat="42.19842" lon="-1.43361">
        <ele>337.6</ele>
        <time>2021-08-04T09:23:52Z</time>
      </trkpt>
      <trkpt lat="42.19853" lon="-1.43354">
        <ele>337.97</ele>
        <time>2021-08-04T09:23:58Z</time>
      </trkpt>
      <trkpt lat="42.19861" lon="-1.43373">
        <ele>338.2</ele>
        <time>2021-08-04T09:24:03Z</time>
      </trkpt>
      <trkpt lat="42.19884" lon="-1.43409">
        <ele>339.64</ele>
        <time>2021-08-04T09:24:15Z</time>
      </trkpt>
      <trkpt lat="42.19899" lon="-1.43437">
        <ele>341.1</ele>
        <time>2021-08-04T09:24:26Z</time>
      </trkpt>
      <trkpt lat="42.1992" lon="-1.43478">
        <ele>344.06</ele>
        <time>2021-08-04T09:24:37Z</time>
      </trkpt>
      <trkpt lat="42.19919" lon="-1.43515">
        <ele>346.3</ele>
        <time>2021-08-04T09:24:49Z</time>
      </trkpt>
      <trkpt lat="42.1992" lon="-1.43516">
        <ele>346.75</ele>
        <time>2021-08-04T09:25:03Z</time>
      </trkpt>
      <trkpt lat="42.1992" lon="-1.43516">
        <ele>347.54</ele>
        <time>2021-08-04T09:25:24Z</time>
      </trkpt>
      <trkpt lat="42.19921" lon="-1.43513">
        <ele>348.31</ele>
        <time>2021-08-04T09:40:43Z</time>
      </trkpt>
      <trkpt lat="42.1992" lon="-1.43513">
        <ele>348.31</ele>
        <time>2021-08-04T09:40:44Z</time>
      </trkpt>
      <trkpt lat="42.19923" lon="-1.43513">
        <ele>348.31</ele>
        <time>2021-08-04T09:41:08Z</time>
      </trkpt>
      <trkpt lat="42.1993" lon="-1.43505">
        <ele>346.37</ele>
        <time>2021-08-04T09:41:17Z</time>
      </trkpt>
      <trkpt lat="42.19926" lon="-1.43486">
        <ele>346.12</ele>
        <time>2021-08-04T09:41:23Z</time>
      </trkpt>
      <trkpt lat="42.19894" lon="-1.43427">
        <ele>345.64</ele>
        <time>2021-08-04T09:41:33Z</time>
      </trkpt>
      <trkpt lat="42.19859" lon="-1.4337">
        <ele>342.4</ele>
        <time>2021-08-04T09:41:41Z</time>
      </trkpt>
      <trkpt lat="42.19855" lon="-1.43363">
        <ele>341.93</ele>
        <time>2021-08-04T09:41:42Z</time>
      </trkpt>
      <trkpt lat="42.19831" lon="-1.43322">
        <ele>339</ele>
        <time>2021-08-04T09:41:49Z</time>
      </trkpt>
      <trkpt lat="42.19797" lon="-1.43201">
        <ele>337.4</ele>
        <time>2021-08-04T09:42:03Z</time>
      </trkpt>
      <trkpt lat="42.19763" lon="-1.4309">
        <ele>337.26</ele>
        <time>2021-08-04T09:42:14Z</time>
      </trkpt>
      <trkpt lat="42.19743" lon="-1.43032">
        <ele>336.77</ele>
        <time>2021-08-04T09:42:19Z</time>
      </trkpt>
      <trkpt lat="42.197" lon="-1.42937">
        <ele>337.05</ele>
        <time>2021-08-04T09:42:29Z</time>
      </trkpt>
      <trkpt lat="42.19678" lon="-1.42834">
        <ele>340.33</ele>
        <time>2021-08-04T09:42:37Z</time>
      </trkpt>
      <trkpt lat="42.1966" lon="-1.42656">
        <ele>342.72</ele>
        <time>2021-08-04T09:42:49Z</time>
      </trkpt>
      <trkpt lat="42.1964" lon="-1.42429">
        <ele>343.52</ele>
        <time>2021-08-04T09:43:05Z</time>
      </trkpt>
      <trkpt lat="42.1962" lon="-1.42238">
        <ele>344.5</ele>
        <time>2021-08-04T09:43:22Z</time>
      </trkpt>
      <trkpt lat="42.19609" lon="-1.42115">
        <ele>347.79</ele>
        <time>2021-08-04T09:43:33Z</time>
      </trkpt>
      <trkpt lat="42.19595" lon="-1.42023">
        <ele>351.14</ele>
        <time>2021-08-04T09:43:42Z</time>
      </trkpt>
      <trkpt lat="42.19569" lon="-1.41932">
        <ele>350.9</ele>
        <time>2021-08-04T09:43:52Z</time>
      </trkpt>
      <trkpt lat="42.19518" lon="-1.4177">
        <ele>351.53</ele>
        <time>2021-08-04T09:44:06Z</time>
      </trkpt>
      <trkpt lat="42.1947" lon="-1.41607">
        <ele>349.32</ele>
        <time>2021-08-04T09:44:21Z</time>
      </trkpt>
      <trkpt lat="42.19435" lon="-1.41493">
        <ele>348.45</ele>
        <time>2021-08-04T09:44:33Z</time>
      </trkpt>
      <trkpt lat="42.19394" lon="-1.41362">
        <ele>348.65</ele>
        <time>2021-08-04T09:44:47Z</time>
      </trkpt>
      <trkpt lat="42.19389" lon="-1.41347">
        <ele>348.67</ele>
        <time>2021-08-04T09:44:49Z</time>
      </trkpt>
      <trkpt lat="42.19362" lon="-1.41316">
        <ele>348.7</ele>
        <time>2021-08-04T09:44:55Z</time>
      </trkpt>
      <trkpt lat="42.19281" lon="-1.41281">
        <ele>348.82</ele>
        <time>2021-08-04T09:45:06Z</time>
      </trkpt>
      <trkpt lat="42.19161" lon="-1.41229">
        <ele>348.48</ele>
        <time>2021-08-04T09:45:19Z</time>
      </trkpt>
      <trkpt lat="42.19011" lon="-1.41176">
        <ele>347.57</ele>
        <time>2021-08-04T09:45:34Z</time>
      </trkpt>
      <trkpt lat="42.18865" lon="-1.41185">
        <ele>344.19</ele>
        <time>2021-08-04T09:45:46Z</time>
      </trkpt>
      <trkpt lat="42.18774" lon="-1.41188">
        <ele>341.11</ele>
        <time>2021-08-04T09:45:53Z</time>
      </trkpt>
      <trkpt lat="42.18674" lon="-1.4115">
        <ele>338.2</ele>
        <time>2021-08-04T09:46:01Z</time>
      </trkpt>
      <trkpt lat="42.18501" lon="-1.41045">
        <ele>335.15</ele>
        <time>2021-08-04T09:46:16Z</time>
      </trkpt>
      <trkpt lat="42.18358" lon="-1.40978">
        <ele>332.43</ele>
        <time>2021-08-04T09:46:29Z</time>
      </trkpt>
      <trkpt lat="42.18322" lon="-1.4095">
        <ele>331.82</ele>
        <time>2021-08-04T09:46:33Z</time>
      </trkpt>
      <trkpt lat="42.18262" lon="-1.40857">
        <ele>332.48</ele>
        <time>2021-08-04T09:46:44Z</time>
      </trkpt>
      <trkpt lat="42.1816" lon="-1.40762">
        <ele>334.34</ele>
        <time>2021-08-04T09:46:56Z</time>
      </trkpt>
      <trkpt lat="42.1811" lon="-1.4073">
        <ele>335.63</ele>
        <time>2021-08-04T09:47:01Z</time>
      </trkpt>
      <trkpt lat="42.18024" lon="-1.40729">
        <ele>338.21</ele>
        <time>2021-08-04T09:47:10Z</time>
      </trkpt>
      <trkpt lat="42.18006" lon="-1.4073">
        <ele>338.31</ele>
        <time>2021-08-04T09:47:12Z</time>
      </trkpt>
      <trkpt lat="42.17964" lon="-1.40753">
        <ele>338.26</ele>
        <time>2021-08-04T09:47:17Z</time>
      </trkpt>
      <trkpt lat="42.17853" lon="-1.40888">
        <ele>336.24</ele>
        <time>2021-08-04T09:47:31Z</time>
      </trkpt>
      <trkpt lat="42.17766" lon="-1.41067">
        <ele>335.21</ele>
        <time>2021-08-04T09:47:44Z</time>
      </trkpt>
      <trkpt lat="42.17713" lon="-1.41265">
        <ele>333.89</ele>
        <time>2021-08-04T09:47:58Z</time>
      </trkpt>
      <trkpt lat="42.17689" lon="-1.41309">
        <ele>333.31</ele>
        <time>2021-08-04T09:48:02Z</time>
      </trkpt>
      <trkpt lat="42.17592" lon="-1.41428">
        <ele>331.44</ele>
        <time>2021-08-04T09:48:15Z</time>
      </trkpt>
      <trkpt lat="42.1747" lon="-1.4158">
        <ele>329.44</ele>
        <time>2021-08-04T09:48:32Z</time>
      </trkpt>
      <trkpt lat="42.17382" lon="-1.41688">
        <ele>328.94</ele>
        <time>2021-08-04T09:48:43Z</time>
      </trkpt>
      <trkpt lat="42.17265" lon="-1.41835">
        <ele>329.28</ele>
        <time>2021-08-04T09:48:57Z</time>
      </trkpt>
      <trkpt lat="42.17145" lon="-1.41978">
        <ele>331.32</ele>
        <time>2021-08-04T09:49:12Z</time>
      </trkpt>
      <trkpt lat="42.17131" lon="-1.42002">
        <ele>331.59</ele>
        <time>2021-08-04T09:49:14Z</time>
      </trkpt>
      <trkpt lat="42.17054" lon="-1.42182">
        <ele>330.81</ele>
        <time>2021-08-04T09:49:28Z</time>
      </trkpt>
      <trkpt lat="42.16973" lon="-1.423">
        <ele>327.73</ele>
        <time>2021-08-04T09:49:39Z</time>
      </trkpt>
      <trkpt lat="42.16913" lon="-1.4237">
        <ele>324.49</ele>
        <time>2021-08-04T09:49:49Z</time>
      </trkpt>
      <trkpt lat="42.16875" lon="-1.42415">
        <ele>321.39</ele>
        <time>2021-08-04T09:49:58Z</time>
      </trkpt>
      <trkpt lat="42.16837" lon="-1.42448">
        <ele>319.43</ele>
        <time>2021-08-04T09:50:03Z</time>
      </trkpt>
      <trkpt lat="42.168" lon="-1.42492">
        <ele>318.9</ele>
        <time>2021-08-04T09:50:07Z</time>
      </trkpt>
      <trkpt lat="42.16743" lon="-1.42587">
        <ele>320.05</ele>
        <time>2021-08-04T09:50:16Z</time>
      </trkpt>
      <trkpt lat="42.16677" lon="-1.4267">
        <ele>320.81</ele>
        <time>2021-08-04T09:50:26Z</time>
      </trkpt>
      <trkpt lat="42.16597" lon="-1.42761">
        <ele>318.75</ele>
        <time>2021-08-04T09:50:37Z</time>
      </trkpt>
      <trkpt lat="42.1649" lon="-1.42876">
        <ele>320.57</ele>
        <time>2021-08-04T09:50:50Z</time>
      </trkpt>
      <trkpt lat="42.16403" lon="-1.42984">
        <ele>322.57</ele>
        <time>2021-08-04T09:51:01Z</time>
      </trkpt>
      <trkpt lat="42.16335" lon="-1.43064">
        <ele>322.03</ele>
        <time>2021-08-04T09:51:09Z</time>
      </trkpt>
      <trkpt lat="42.16292" lon="-1.43182">
        <ele>320.97</ele>
        <time>2021-08-04T09:51:21Z</time>
      </trkpt>
      <trkpt lat="42.16288" lon="-1.43197">
        <ele>320.77</ele>
        <time>2021-08-04T09:51:23Z</time>
      </trkpt>
      <trkpt lat="42.16288" lon="-1.43296">
        <ele>319.75</ele>
        <time>2021-08-04T09:51:36Z</time>
      </trkpt>
      <trkpt lat="42.16314" lon="-1.43383">
        <ele>318.81</ele>
        <time>2021-08-04T09:51:48Z</time>
      </trkpt>
      <trkpt lat="42.16364" lon="-1.43489">
        <ele>317.18</ele>
        <time>2021-08-04T09:52:03Z</time>
      </trkpt>
      <trkpt lat="42.16422" lon="-1.43604">
        <ele>316.51</ele>
        <time>2021-08-04T09:52:18Z</time>
      </trkpt>
      <trkpt lat="42.16483" lon="-1.43721">
        <ele>317.37</ele>
        <time>2021-08-04T09:52:31Z</time>
      </trkpt>
      <trkpt lat="42.16522" lon="-1.43817">
        <ele>319.02</ele>
        <time>2021-08-04T09:52:43Z</time>
      </trkpt>
      <trkpt lat="42.16561" lon="-1.43897">
        <ele>315.79</ele>
        <time>2021-08-04T09:52:57Z</time>
      </trkpt>
      <trkpt lat="42.16615" lon="-1.43956">
        <ele>313.42</ele>
        <time>2021-08-04T09:53:11Z</time>
      </trkpt>
      <trkpt lat="42.16682" lon="-1.44021">
        <ele>312.16</ele>
        <time>2021-08-04T09:53:28Z</time>
      </trkpt>
      <trkpt lat="42.16719" lon="-1.44057">
        <ele>311.19</ele>
        <time>2021-08-04T09:53:41Z</time>
      </trkpt>
      <trkpt lat="42.16763" lon="-1.44131">
        <ele>311.03</ele>
        <time>2021-08-04T09:53:50Z</time>
      </trkpt>
      <trkpt lat="42.16816" lon="-1.44211">
        <ele>310.19</ele>
        <time>2021-08-04T09:53:59Z</time>
      </trkpt>
      <trkpt lat="42.16902" lon="-1.4429">
        <ele>308.73</ele>
        <time>2021-08-04T09:54:11Z</time>
      </trkpt>
      <trkpt lat="42.16976" lon="-1.44399">
        <ele>307.1</ele>
        <time>2021-08-04T09:54:25Z</time>
      </trkpt>
      <trkpt lat="42.17022" lon="-1.44473">
        <ele>306.52</ele>
        <time>2021-08-04T09:54:37Z</time>
      </trkpt>
      <trkpt lat="42.1707" lon="-1.44551">
        <ele>306.7</ele>
        <time>2021-08-04T09:54:50Z</time>
      </trkpt>
      <trkpt lat="42.17147" lon="-1.44626">
        <ele>306.5</ele>
        <time>2021-08-04T09:55:03Z</time>
      </trkpt>
      <trkpt lat="42.17227" lon="-1.44704">
        <ele>303.47</ele>
        <time>2021-08-04T09:55:15Z</time>
      </trkpt>
      <trkpt lat="42.17271" lon="-1.44767">
        <ele>301.22</ele>
        <time>2021-08-04T09:55:24Z</time>
      </trkpt>
      <trkpt lat="42.17281" lon="-1.44804">
        <ele>298.14</ele>
        <time>2021-08-04T09:55:34Z</time>
      </trkpt>
      <trkpt lat="42.17301" lon="-1.44857">
        <ele>297.91</ele>
        <time>2021-08-04T09:55:40Z</time>
      </trkpt>
      <trkpt lat="42.17325" lon="-1.44889">
        <ele>298.09</ele>
        <time>2021-08-04T09:55:44Z</time>
      </trkpt>
      <trkpt lat="42.17437" lon="-1.45015">
        <ele>300.27</ele>
        <time>2021-08-04T09:56:00Z</time>
      </trkpt>
      <trkpt lat="42.17518" lon="-1.4514">
        <ele>300.54</ele>
        <time>2021-08-04T09:56:12Z</time>
      </trkpt>
      <trkpt lat="42.17568" lon="-1.45223">
        <ele>298.61</ele>
        <time>2021-08-04T09:56:19Z</time>
      </trkpt>
      <trkpt lat="42.17654" lon="-1.45308">
        <ele>296.81</ele>
        <time>2021-08-04T09:56:29Z</time>
      </trkpt>
      <trkpt lat="42.17788" lon="-1.45447">
        <ele>298.77</ele>
        <time>2021-08-04T09:56:43Z</time>
      </trkpt>
      <trkpt lat="42.17858" lon="-1.45524">
        <ele>300.56</ele>
        <time>2021-08-04T09:56:53Z</time>
      </trkpt>
      <trkpt lat="42.17949" lon="-1.45615">
        <ele>302.2</ele>
        <time>2021-08-04T09:57:06Z</time>
      </trkpt>
      <trkpt lat="42.1805" lon="-1.45744">
        <ele>304.66</ele>
        <time>2021-08-04T09:57:20Z</time>
      </trkpt>
      <trkpt lat="42.18156" lon="-1.45875">
        <ele>303.35</ele>
        <time>2021-08-04T09:57:34Z</time>
      </trkpt>
      <trkpt lat="42.18185" lon="-1.45985">
        <ele>302.44</ele>
        <time>2021-08-04T09:57:43Z</time>
      </trkpt>
      <trkpt lat="42.18179" lon="-1.46146">
        <ele>302.83</ele>
        <time>2021-08-04T09:57:56Z</time>
      </trkpt>
      <trkpt lat="42.1814" lon="-1.46361">
        <ele>301.97</ele>
        <time>2021-08-04T09:58:13Z</time>
      </trkpt>
      <trkpt lat="42.18151" lon="-1.46485">
        <ele>299.77</ele>
        <time>2021-08-04T09:58:23Z</time>
      </trkpt>
      <trkpt lat="42.18192" lon="-1.46715">
        <ele>296.66</ele>
        <time>2021-08-04T09:58:42Z</time>
      </trkpt>
      <trkpt lat="42.18215" lon="-1.46929">
        <ele>294.58</ele>
        <time>2021-08-04T09:58:59Z</time>
      </trkpt>
      <trkpt lat="42.18232" lon="-1.47087">
        <ele>292.39</ele>
        <time>2021-08-04T09:59:13Z</time>
      </trkpt>
      <trkpt lat="42.18253" lon="-1.47302">
        <ele>289.83</ele>
        <time>2021-08-04T09:59:31Z</time>
      </trkpt>
      <trkpt lat="42.18268" lon="-1.4744">
        <ele>290.36</ele>
        <time>2021-08-04T09:59:43Z</time>
      </trkpt>
      <trkpt lat="42.18275" lon="-1.47469">
        <ele>290.2</ele>
        <time>2021-08-04T09:59:45Z</time>
      </trkpt>
      <trkpt lat="42.18294" lon="-1.47519">
        <ele>289.03</ele>
        <time>2021-08-04T09:59:49Z</time>
      </trkpt>
      <trkpt lat="42.18303" lon="-1.47638">
        <ele>287.95</ele>
        <time>2021-08-04T10:00:01Z</time>
      </trkpt>
      <trkpt lat="42.18292" lon="-1.47749">
        <ele>291</ele>
        <time>2021-08-04T10:00:11Z</time>
      </trkpt>
      <trkpt lat="42.18286" lon="-1.47806">
        <ele>292.86</ele>
        <time>2021-08-04T10:00:16Z</time>
      </trkpt>
      <trkpt lat="42.18293" lon="-1.47856">
        <ele>294.46</ele>
        <time>2021-08-04T10:00:22Z</time>
      </trkpt>
      <trkpt lat="42.18343" lon="-1.47947">
        <ele>297.79</ele>
        <time>2021-08-04T10:00:33Z</time>
      </trkpt>
      <trkpt lat="42.18374" lon="-1.47993">
        <ele>298.8</ele>
        <time>2021-08-04T10:00:38Z</time>
      </trkpt>
      <trkpt lat="42.18391" lon="-1.48044">
        <ele>299.14</ele>
        <time>2021-08-04T10:00:45Z</time>
      </trkpt>
      <trkpt lat="42.18391" lon="-1.48048">
        <ele>298.78</ele>
        <time>2021-08-04T10:00:59Z</time>
      </trkpt>
      <trkpt lat="42.18396" lon="-1.48081">
        <ele>299.09</ele>
        <time>2021-08-04T10:01:13Z</time>
      </trkpt>
      <trkpt lat="42.18403" lon="-1.48118">
        <ele>299.84</ele>
        <time>2021-08-04T10:01:17Z</time>
      </trkpt>
      <trkpt lat="42.18451" lon="-1.48202">
        <ele>303.01</ele>
        <time>2021-08-04T10:01:28Z</time>
      </trkpt>
      <trkpt lat="42.18506" lon="-1.48282">
        <ele>304.6</ele>
        <time>2021-08-04T10:01:41Z</time>
      </trkpt>
      <trkpt lat="42.18556" lon="-1.48372">
        <ele>303.76</ele>
        <time>2021-08-04T10:01:55Z</time>
      </trkpt>
      <trkpt lat="42.18574" lon="-1.48411">
        <ele>303.18</ele>
        <time>2021-08-04T10:02:00Z</time>
      </trkpt>
      <trkpt lat="42.18603" lon="-1.48435">
        <ele>302.4</ele>
        <time>2021-08-04T10:02:05Z</time>
      </trkpt>
      <trkpt lat="42.1867" lon="-1.48439">
        <ele>302.02</ele>
        <time>2021-08-04T10:02:17Z</time>
      </trkpt>
      <trkpt lat="42.18691" lon="-1.48429">
        <ele>302.2</ele>
        <time>2021-08-04T10:02:21Z</time>
      </trkpt>
      <trkpt lat="42.18741" lon="-1.48436">
        <ele>302.61</ele>
        <time>2021-08-04T10:02:28Z</time>
      </trkpt>
      <trkpt lat="42.18843" lon="-1.48523">
        <ele>303.6</ele>
        <time>2021-08-04T10:02:42Z</time>
      </trkpt>
      <trkpt lat="42.1896" lon="-1.4862">
        <ele>304.88</ele>
        <time>2021-08-04T10:02:57Z</time>
      </trkpt>
      <trkpt lat="42.1909" lon="-1.48731">
        <ele>304.94</ele>
        <time>2021-08-04T10:03:13Z</time>
      </trkpt>
      <trkpt lat="42.19188" lon="-1.48814">
        <ele>307.57</ele>
        <time>2021-08-04T10:03:26Z</time>
      </trkpt>
      <trkpt lat="42.19277" lon="-1.48893">
        <ele>310.49</ele>
        <time>2021-08-04T10:03:37Z</time>
      </trkpt>
      <trkpt lat="42.19394" lon="-1.49011">
        <ele>308.29</ele>
        <time>2021-08-04T10:03:51Z</time>
      </trkpt>
      <trkpt lat="42.19423" lon="-1.49038">
        <ele>306.6</ele>
        <time>2021-08-04T10:03:55Z</time>
      </trkpt>
      <trkpt lat="42.19526" lon="-1.49141">
        <ele>304.58</ele>
        <time>2021-08-04T10:04:09Z</time>
      </trkpt>
      <trkpt lat="42.19647" lon="-1.49262">
        <ele>304.58</ele>
        <time>2021-08-04T10:04:23Z</time>
      </trkpt>
      <trkpt lat="42.19757" lon="-1.49373">
        <ele>302.51</ele>
        <time>2021-08-04T10:04:36Z</time>
      </trkpt>
      <trkpt lat="42.19923" lon="-1.49541">
        <ele>302.65</ele>
        <time>2021-08-04T10:04:56Z</time>
      </trkpt>
      <trkpt lat="42.2009" lon="-1.4971">
        <ele>304.64</ele>
        <time>2021-08-04T10:05:17Z</time>
      </trkpt>
      <trkpt lat="42.20213" lon="-1.49836">
        <ele>307.67</ele>
        <time>2021-08-04T10:05:31Z</time>
      </trkpt>
      <trkpt lat="42.20282" lon="-1.49905">
        <ele>310.68</ele>
        <time>2021-08-04T10:05:39Z</time>
      </trkpt>
      <trkpt lat="42.20357" lon="-1.49979">
        <ele>313.71</ele>
        <time>2021-08-04T10:05:48Z</time>
      </trkpt>
      <trkpt lat="42.20436" lon="-1.50055">
        <ele>316.76</ele>
        <time>2021-08-04T10:05:57Z</time>
      </trkpt>
      <trkpt lat="42.20504" lon="-1.50128">
        <ele>319.22</ele>
        <time>2021-08-04T10:06:07Z</time>
      </trkpt>
      <trkpt lat="42.20537" lon="-1.50174">
        <ele>317.4</ele>
        <time>2021-08-04T10:06:16Z</time>
      </trkpt>
      <trkpt lat="42.20557" lon="-1.50218">
        <ele>314.36</ele>
        <time>2021-08-04T10:06:24Z</time>
      </trkpt>
      <trkpt lat="42.20584" lon="-1.50275">
        <ele>311.31</ele>
        <time>2021-08-04T10:06:33Z</time>
      </trkpt>
      <trkpt lat="42.20634" lon="-1.50383">
        <ele>308.57</ele>
        <time>2021-08-04T10:06:43Z</time>
      </trkpt>
      <trkpt lat="42.20687" lon="-1.50495">
        <ele>305.46</ele>
        <time>2021-08-04T10:06:50Z</time>
      </trkpt>
      <trkpt lat="42.20722" lon="-1.50569">
        <ele>303.14</ele>
        <time>2021-08-04T10:06:55Z</time>
      </trkpt>
      <trkpt lat="42.20735" lon="-1.50666">
        <ele>301.32</ele>
        <time>2021-08-04T10:07:02Z</time>
      </trkpt>
      <trkpt lat="42.20723" lon="-1.50769">
        <ele>300.87</ele>
        <time>2021-08-04T10:07:11Z</time>
      </trkpt>
      <trkpt lat="42.20699" lon="-1.50853">
        <ele>302.08</ele>
        <time>2021-08-04T10:07:16Z</time>
      </trkpt>
      <trkpt lat="42.20698" lon="-1.50905">
        <ele>303.04</ele>
        <time>2021-08-04T10:07:19Z</time>
      </trkpt>
      <trkpt lat="42.20703" lon="-1.50922">
        <ele>303.44</ele>
        <time>2021-08-04T10:07:20Z</time>
      </trkpt>
      <trkpt lat="42.20753" lon="-1.51027">
        <ele>304.45</ele>
        <time>2021-08-04T10:07:28Z</time>
      </trkpt>
      <trkpt lat="42.20769" lon="-1.51062">
        <ele>303.36</ele>
        <time>2021-08-04T10:07:35Z</time>
      </trkpt>
      <trkpt lat="42.2081" lon="-1.5116">
        <ele>304.69</ele>
        <time>2021-08-04T10:07:44Z</time>
      </trkpt>
      <trkpt lat="42.20856" lon="-1.51274">
        <ele>302.8</ele>
        <time>2021-08-04T10:07:57Z</time>
      </trkpt>
      <trkpt lat="42.209" lon="-1.51381">
        <ele>301.08</ele>
        <time>2021-08-04T10:08:11Z</time>
      </trkpt>
      <trkpt lat="42.20939" lon="-1.51469">
        <ele>299.21</ele>
        <time>2021-08-04T10:08:27Z</time>
      </trkpt>
      <trkpt lat="42.20959" lon="-1.51495">
        <ele>298.52</ele>
        <time>2021-08-04T10:08:40Z</time>
      </trkpt>
      <trkpt lat="42.20972" lon="-1.51501">
        <ele>297.93</ele>
        <time>2021-08-04T10:08:50Z</time>
      </trkpt>
      <trkpt lat="42.20971" lon="-1.5152">
        <ele>296.93</ele>
        <time>2021-08-04T10:09:02Z</time>
      </trkpt>
      <trkpt lat="42.20971" lon="-1.51521">
        <ele>296.89</ele>
        <time>2021-08-04T10:09:03Z</time>
      </trkpt>
      <trkpt lat="42.2096" lon="-1.51542">
        <ele>295.58</ele>
        <time>2021-08-04T10:09:22Z</time>
      </trkpt>
      <trkpt lat="42.20956" lon="-1.51548">
        <ele>295.2</ele>
        <time>2021-08-04T10:09:43Z</time>
      </trkpt>
      <trkpt lat="42.20956" lon="-1.51549">
        <ele>295.11</ele>
        <time>2021-08-04T10:09:58Z</time>
      </trkpt>
      <trkpt lat="42.20957" lon="-1.51565">
        <ele>294.84</ele>
        <time>2021-08-04T10:10:10Z</time>
      </trkpt>
      <trkpt lat="42.20958" lon="-1.51565">
        <ele>295.09</ele>
        <time>2021-08-04T10:10:29Z</time>
      </trkpt>
      <trkpt lat="42.20956" lon="-1.51565">
        <ele>295.09</ele>
        <time>2021-08-04T10:10:49Z</time>
      </trkpt>
      <trkpt lat="42.20956" lon="-1.51569">
        <ele>294.31</ele>
        <time>2021-08-04T10:10:58Z</time>
      </trkpt>
      <trkpt lat="42.20959" lon="-1.51566">
        <ele>294.3</ele>
        <time>2021-08-04T10:11:12Z</time>
      </trkpt>
      <trkpt lat="42.20959" lon="-1.51566">
        <ele>295.33</ele>
        <time>2021-08-04T10:11:45Z</time>
      </trkpt>
      <trkpt lat="42.2096" lon="-1.51561">
        <ele>294.19</ele>
        <time>2021-08-04T10:19:29Z</time>
      </trkpt>
      <trkpt lat="42.20956" lon="-1.51565">
        <ele>294.19</ele>
        <time>2021-08-04T10:19:30Z</time>
      </trkpt>
      <trkpt lat="42.20957" lon="-1.51565">
        <ele>294.19</ele>
        <time>2021-08-04T10:19:51Z</time>
      </trkpt>
      <trkpt lat="42.20941" lon="-1.51567">
        <ele>292.6</ele>
        <time>2021-08-04T10:19:59Z</time>
      </trkpt>
      <trkpt lat="42.20908" lon="-1.5159">
        <ele>291.61</ele>
        <time>2021-08-04T10:20:08Z</time>
      </trkpt>
      <trkpt lat="42.20815" lon="-1.51602">
        <ele>291.45</ele>
        <time>2021-08-04T10:20:23Z</time>
      </trkpt>
      <trkpt lat="42.2069" lon="-1.51612">
        <ele>290.87</ele>
        <time>2021-08-04T10:20:39Z</time>
      </trkpt>
      <trkpt lat="42.20569" lon="-1.51605">
        <ele>290.52</ele>
        <time>2021-08-04T10:20:53Z</time>
      </trkpt>
      <trkpt lat="42.20513" lon="-1.51574">
        <ele>290.27</ele>
        <time>2021-08-04T10:21:00Z</time>
      </trkpt>
      <trkpt lat="42.20487" lon="-1.51544">
        <ele>290.15</ele>
        <time>2021-08-04T10:21:04Z</time>
      </trkpt>
      <trkpt lat="42.20466" lon="-1.51511">
        <ele>290.08</ele>
        <time>2021-08-04T10:21:08Z</time>
      </trkpt>
      <trkpt lat="42.20415" lon="-1.51501">
        <ele>289.96</ele>
        <time>2021-08-04T10:21:14Z</time>
      </trkpt>
      <trkpt lat="42.20291" lon="-1.51534">
        <ele>290</ele>
        <time>2021-08-04T10:21:29Z</time>
      </trkpt>
      <trkpt lat="42.20282" lon="-1.51539">
        <ele>289.98</ele>
        <time>2021-08-04T10:21:30Z</time>
      </trkpt>
      <trkpt lat="42.20233" lon="-1.51589">
        <ele>289.96</ele>
        <time>2021-08-04T10:21:37Z</time>
      </trkpt>
      <trkpt lat="42.20164" lon="-1.51621">
        <ele>289.34</ele>
        <time>2021-08-04T10:21:49Z</time>
      </trkpt>
      <trkpt lat="42.20082" lon="-1.51665">
        <ele>289.96</ele>
        <time>2021-08-04T10:22:00Z</time>
      </trkpt>
      <trkpt lat="42.20066" lon="-1.51674">
        <ele>290.03</ele>
        <time>2021-08-04T10:22:02Z</time>
      </trkpt>
      <trkpt lat="42.19953" lon="-1.51699">
        <ele>289.6</ele>
        <time>2021-08-04T10:22:15Z</time>
      </trkpt>
      <trkpt lat="42.19812" lon="-1.5175">
        <ele>289.44</ele>
        <time>2021-08-04T10:22:29Z</time>
      </trkpt>
      <trkpt lat="42.19625" lon="-1.51833">
        <ele>288.19</ele>
        <time>2021-08-04T10:22:47Z</time>
      </trkpt>
      <trkpt lat="42.19494" lon="-1.519">
        <ele>287.25</ele>
        <time>2021-08-04T10:23:00Z</time>
      </trkpt>
      <trkpt lat="42.19351" lon="-1.51969">
        <ele>286.81</ele>
        <time>2021-08-04T10:23:15Z</time>
      </trkpt>
      <trkpt lat="42.19213" lon="-1.52027">
        <ele>286.34</ele>
        <time>2021-08-04T10:23:29Z</time>
      </trkpt>
      <trkpt lat="42.19049" lon="-1.52032">
        <ele>285.22</ele>
        <time>2021-08-04T10:23:46Z</time>
      </trkpt>
      <trkpt lat="42.18944" lon="-1.52031">
        <ele>284.92</ele>
        <time>2021-08-04T10:23:57Z</time>
      </trkpt>
      <trkpt lat="42.18908" lon="-1.52046">
        <ele>284.9</ele>
        <time>2021-08-04T10:24:01Z</time>
      </trkpt>
      <trkpt lat="42.188" lon="-1.52122">
        <ele>285.7</ele>
        <time>2021-08-04T10:24:14Z</time>
      </trkpt>
      <trkpt lat="42.1873" lon="-1.52138">
        <ele>285.34</ele>
        <time>2021-08-04T10:24:23Z</time>
      </trkpt>
      <trkpt lat="42.18663" lon="-1.52141">
        <ele>285.32</ele>
        <time>2021-08-04T10:24:32Z</time>
      </trkpt>
      <trkpt lat="42.18622" lon="-1.52166">
        <ele>285.71</ele>
        <time>2021-08-04T10:24:37Z</time>
      </trkpt>
      <trkpt lat="42.18608" lon="-1.5218">
        <ele>285.89</ele>
        <time>2021-08-04T10:24:39Z</time>
      </trkpt>
      <trkpt lat="42.18557" lon="-1.52201">
        <ele>286.59</ele>
        <time>2021-08-04T10:24:46Z</time>
      </trkpt>
      <trkpt lat="42.18481" lon="-1.52184">
        <ele>286.41</ele>
        <time>2021-08-04T10:24:59Z</time>
      </trkpt>
      <trkpt lat="42.18389" lon="-1.52169">
        <ele>287.96</ele>
        <time>2021-08-04T10:25:13Z</time>
      </trkpt>
      <trkpt lat="42.18326" lon="-1.52191">
        <ele>289.19</ele>
        <time>2021-08-04T10:25:22Z</time>
      </trkpt>
      <trkpt lat="42.18253" lon="-1.52201">
        <ele>290.52</ele>
        <time>2021-08-04T10:25:32Z</time>
      </trkpt>
      <trkpt lat="42.18226" lon="-1.52189">
        <ele>291.13</ele>
        <time>2021-08-04T10:25:36Z</time>
      </trkpt>
      <trkpt lat="42.1812" lon="-1.52125">
        <ele>293.03</ele>
        <time>2021-08-04T10:25:48Z</time>
      </trkpt>
      <trkpt lat="42.18072" lon="-1.5211">
        <ele>294.51</ele>
        <time>2021-08-04T10:25:52Z</time>
      </trkpt>
      <trkpt lat="42.18024" lon="-1.52123">
        <ele>295.77</ele>
        <time>2021-08-04T10:25:56Z</time>
      </trkpt>
      <trkpt lat="42.17943" lon="-1.52186">
        <ele>298.92</ele>
        <time>2021-08-04T10:26:03Z</time>
      </trkpt>
      <trkpt lat="42.17903" lon="-1.52259">
        <ele>302.65</ele>
        <time>2021-08-04T10:26:09Z</time>
      </trkpt>
      <trkpt lat="42.179" lon="-1.52269">
        <ele>303.25</ele>
        <time>2021-08-04T10:26:10Z</time>
      </trkpt>
      <trkpt lat="42.17913" lon="-1.52326">
        <ele>306.94</ele>
        <time>2021-08-04T10:26:16Z</time>
      </trkpt>
      <trkpt lat="42.1792" lon="-1.52354">
        <ele>307.96</ele>
        <time>2021-08-04T10:26:18Z</time>
      </trkpt>
      <trkpt lat="42.17974" lon="-1.52526">
        <ele>311.57</ele>
        <time>2021-08-04T10:26:27Z</time>
      </trkpt>
      <trkpt lat="42.18024" lon="-1.52663">
        <ele>314.64</ele>
        <time>2021-08-04T10:26:34Z</time>
      </trkpt>
      <trkpt lat="42.18049" lon="-1.5273">
        <ele>316.17</ele>
        <time>2021-08-04T10:26:38Z</time>
      </trkpt>
      <trkpt lat="42.18083" lon="-1.52893">
        <ele>320</ele>
        <time>2021-08-04T10:26:46Z</time>
      </trkpt>
      <trkpt lat="42.18093" lon="-1.52949">
        <ele>321.43</ele>
        <time>2021-08-04T10:26:49Z</time>
      </trkpt>
      <trkpt lat="42.18075" lon="-1.53074">
        <ele>325.2</ele>
        <time>2021-08-04T10:26:56Z</time>
      </trkpt>
      <trkpt lat="42.17999" lon="-1.5322">
        <ele>325.1</ele>
        <time>2021-08-04T10:27:06Z</time>
      </trkpt>
      <trkpt lat="42.17957" lon="-1.53288">
        <ele>321.63</ele>
        <time>2021-08-04T10:27:13Z</time>
      </trkpt>
      <trkpt lat="42.1792" lon="-1.53332">
        <ele>318.59</ele>
        <time>2021-08-04T10:27:19Z</time>
      </trkpt>
      <trkpt lat="42.17891" lon="-1.53358">
        <ele>316.11</ele>
        <time>2021-08-04T10:27:25Z</time>
      </trkpt>
      <trkpt lat="42.17837" lon="-1.53364">
        <ele>315.04</ele>
        <time>2021-08-04T10:27:31Z</time>
      </trkpt>
      <trkpt lat="42.17794" lon="-1.53356">
        <ele>314.65</ele>
        <time>2021-08-04T10:27:35Z</time>
      </trkpt>
      <trkpt lat="42.17693" lon="-1.53389">
        <ele>314.71</ele>
        <time>2021-08-04T10:27:43Z</time>
      </trkpt>
      <trkpt lat="42.1762" lon="-1.53425">
        <ele>314.51</ele>
        <time>2021-08-04T10:27:49Z</time>
      </trkpt>
      <trkpt lat="42.17586" lon="-1.53476">
        <ele>313.77</ele>
        <time>2021-08-04T10:27:54Z</time>
      </trkpt>
      <trkpt lat="42.17579" lon="-1.53504">
        <ele>313.31</ele>
        <time>2021-08-04T10:27:56Z</time>
      </trkpt>
      <trkpt lat="42.17557" lon="-1.53561">
        <ele>312.19</ele>
        <time>2021-08-04T10:28:00Z</time>
      </trkpt>
      <trkpt lat="42.17546" lon="-1.53709">
        <ele>309.01</ele>
        <time>2021-08-04T10:28:08Z</time>
      </trkpt>
      <trkpt lat="42.17539" lon="-1.53792">
        <ele>305.89</ele>
        <time>2021-08-04T10:28:12Z</time>
      </trkpt>
      <trkpt lat="42.17529" lon="-1.53883">
        <ele>302.38</ele>
        <time>2021-08-04T10:28:16Z</time>
      </trkpt>
      <trkpt lat="42.17525" lon="-1.53926">
        <ele>300.51</ele>
        <time>2021-08-04T10:28:18Z</time>
      </trkpt>
      <trkpt lat="42.17538" lon="-1.53991">
        <ele>296.19</ele>
        <time>2021-08-04T10:28:22Z</time>
      </trkpt>
      <trkpt lat="42.17546" lon="-1.54003">
        <ele>294.99</ele>
        <time>2021-08-04T10:28:23Z</time>
      </trkpt>
      <trkpt lat="42.17577" lon="-1.54043">
        <ele>290.51</ele>
        <time>2021-08-04T10:28:27Z</time>
      </trkpt>
      <trkpt lat="42.17593" lon="-1.54066">
        <ele>287.18</ele>
        <time>2021-08-04T10:28:30Z</time>
      </trkpt>
      <trkpt lat="42.17612" lon="-1.54092">
        <ele>283.69</ele>
        <time>2021-08-04T10:28:34Z</time>
      </trkpt>
      <trkpt lat="42.17619" lon="-1.54103">
        <ele>280.62</ele>
        <time>2021-08-04T10:28:40Z</time>
      </trkpt>
      <trkpt lat="42.17637" lon="-1.54133">
        <ele>278.71</ele>
        <time>2021-08-04T10:28:52Z</time>
      </trkpt>
      <trkpt lat="42.17692" lon="-1.54211">
        <ele>278.76</ele>
        <time>2021-08-04T10:29:00Z</time>
      </trkpt>
      <trkpt lat="42.17711" lon="-1.54246">
        <ele>278.93</ele>
        <time>2021-08-04T10:29:03Z</time>
      </trkpt>
      <trkpt lat="42.17716" lon="-1.54259">
        <ele>278.98</ele>
        <time>2021-08-04T10:29:04Z</time>
      </trkpt>
      <trkpt lat="42.17719" lon="-1.54272">
        <ele>279.05</ele>
        <time>2021-08-04T10:29:05Z</time>
      </trkpt>
      <trkpt lat="42.1772" lon="-1.54285">
        <ele>279.15</ele>
        <time>2021-08-04T10:29:06Z</time>
      </trkpt>
      <trkpt lat="42.17721" lon="-1.54298">
        <ele>279.25</ele>
        <time>2021-08-04T10:29:07Z</time>
      </trkpt>
      <trkpt lat="42.17719" lon="-1.54312">
        <ele>279.3</ele>
        <time>2021-08-04T10:29:08Z</time>
      </trkpt>
      <trkpt lat="42.17717" lon="-1.54326">
        <ele>279.39</ele>
        <time>2021-08-04T10:29:09Z</time>
      </trkpt>
      <trkpt lat="42.17713" lon="-1.54341">
        <ele>279.45</ele>
        <time>2021-08-04T10:29:10Z</time>
      </trkpt>
      <trkpt lat="42.17708" lon="-1.54357">
        <ele>279.5</ele>
        <time>2021-08-04T10:29:11Z</time>
      </trkpt>
      <trkpt lat="42.17656" lon="-1.54509">
        <ele>280.44</ele>
        <time>2021-08-04T10:29:19Z</time>
      </trkpt>
      <trkpt lat="42.17626" lon="-1.5457">
        <ele>281</ele>
        <time>2021-08-04T10:29:22Z</time>
      </trkpt>
      <trkpt lat="42.17598" lon="-1.54686">
        <ele>282.12</ele>
        <time>2021-08-04T10:29:28Z</time>
      </trkpt>
      <trkpt lat="42.17546" lon="-1.54766">
        <ele>284.44</ele>
        <time>2021-08-04T10:29:34Z</time>
      </trkpt>
      <trkpt lat="42.17539" lon="-1.54781">
        <ele>284.92</ele>
        <time>2021-08-04T10:29:35Z</time>
      </trkpt>
      <trkpt lat="42.17461" lon="-1.54889">
        <ele>289.62</ele>
        <time>2021-08-04T10:29:43Z</time>
      </trkpt>
      <trkpt lat="42.17411" lon="-1.5495">
        <ele>291.78</ele>
        <time>2021-08-04T10:29:47Z</time>
      </trkpt>
      <trkpt lat="42.17378" lon="-1.5506">
        <ele>293.8</ele>
        <time>2021-08-04T10:29:53Z</time>
      </trkpt>
      <trkpt lat="42.17363" lon="-1.55097">
        <ele>294.72</ele>
        <time>2021-08-04T10:29:55Z</time>
      </trkpt>
      <trkpt lat="42.17346" lon="-1.5513">
        <ele>295.87</ele>
        <time>2021-08-04T10:29:57Z</time>
      </trkpt>
      <trkpt lat="42.17333" lon="-1.552">
        <ele>297.19</ele>
        <time>2021-08-04T10:30:01Z</time>
      </trkpt>
      <trkpt lat="42.17302" lon="-1.55324">
        <ele>299.19</ele>
        <time>2021-08-04T10:30:08Z</time>
      </trkpt>
      <trkpt lat="42.17251" lon="-1.55424">
        <ele>301.28</ele>
        <time>2021-08-04T10:30:14Z</time>
      </trkpt>
      <trkpt lat="42.17231" lon="-1.55515">
        <ele>302.67</ele>
        <time>2021-08-04T10:30:19Z</time>
      </trkpt>
      <trkpt lat="42.17172" lon="-1.55655">
        <ele>303.82</ele>
        <time>2021-08-04T10:30:27Z</time>
      </trkpt>
      <trkpt lat="42.17085" lon="-1.55764">
        <ele>304.89</ele>
        <time>2021-08-04T10:30:34Z</time>
      </trkpt>
      <trkpt lat="42.17014" lon="-1.55864">
        <ele>305.9</ele>
        <time>2021-08-04T10:30:40Z</time>
      </trkpt>
      <trkpt lat="42.17013" lon="-1.55888">
        <ele>306.06</ele>
        <time>2021-08-04T10:30:41Z</time>
      </trkpt>
      <trkpt lat="42.17016" lon="-1.55971">
        <ele>306.95</ele>
        <time>2021-08-04T10:30:45Z</time>
      </trkpt>
      <trkpt lat="42.16986" lon="-1.56051">
        <ele>307.41</ele>
        <time>2021-08-04T10:30:50Z</time>
      </trkpt>
      <trkpt lat="42.16959" lon="-1.56072">
        <ele>307.93</ele>
        <time>2021-08-04T10:30:52Z</time>
      </trkpt>
      <trkpt lat="42.16894" lon="-1.56107">
        <ele>308.96</ele>
        <time>2021-08-04T10:30:57Z</time>
      </trkpt>
      <trkpt lat="42.1683" lon="-1.56176">
        <ele>310.56</ele>
        <time>2021-08-04T10:31:05Z</time>
      </trkpt>
      <trkpt lat="42.16762" lon="-1.56294">
        <ele>310.97</ele>
        <time>2021-08-04T10:31:14Z</time>
      </trkpt>
      <trkpt lat="42.16658" lon="-1.56526">
        <ele>307.85</ele>
        <time>2021-08-04T10:31:28Z</time>
      </trkpt>
      <trkpt lat="42.16592" lon="-1.56663">
        <ele>304.68</ele>
        <time>2021-08-04T10:31:37Z</time>
      </trkpt>
      <trkpt lat="42.16492" lon="-1.56836">
        <ele>301.75</ele>
        <time>2021-08-04T10:31:48Z</time>
      </trkpt>
      <trkpt lat="42.16428" lon="-1.56947">
        <ele>298.29</ele>
        <time>2021-08-04T10:31:55Z</time>
      </trkpt>
      <trkpt lat="42.16412" lon="-1.5706">
        <ele>295.26</ele>
        <time>2021-08-04T10:32:01Z</time>
      </trkpt>
      <trkpt lat="42.16408" lon="-1.57153">
        <ele>292.87</ele>
        <time>2021-08-04T10:32:07Z</time>
      </trkpt>
      <trkpt lat="42.16411" lon="-1.57216">
        <ele>290.43</ele>
        <time>2021-08-04T10:32:11Z</time>
      </trkpt>
      <trkpt lat="42.16421" lon="-1.57269">
        <ele>287.67</ele>
        <time>2021-08-04T10:32:15Z</time>
      </trkpt>
      <trkpt lat="42.1642" lon="-1.57282">
        <ele>286.98</ele>
        <time>2021-08-04T10:32:16Z</time>
      </trkpt>
      <trkpt lat="42.16413" lon="-1.57297">
        <ele>286.34</ele>
        <time>2021-08-04T10:32:17Z</time>
      </trkpt>
      <trkpt lat="42.16407" lon="-1.57311">
        <ele>285.82</ele>
        <time>2021-08-04T10:32:18Z</time>
      </trkpt>
      <trkpt lat="42.16369" lon="-1.57425">
        <ele>282.2</ele>
        <time>2021-08-04T10:32:26Z</time>
      </trkpt>
      <trkpt lat="42.16377" lon="-1.57542">
        <ele>278.88</ele>
        <time>2021-08-04T10:32:33Z</time>
      </trkpt>
      <trkpt lat="42.1638" lon="-1.57556">
        <ele>278.2</ele>
        <time>2021-08-04T10:32:34Z</time>
      </trkpt>
      <trkpt lat="42.164" lon="-1.57594">
        <ele>276.16</ele>
        <time>2021-08-04T10:32:37Z</time>
      </trkpt>
      <trkpt lat="42.16423" lon="-1.57671">
        <ele>273.64</ele>
        <time>2021-08-04T10:32:42Z</time>
      </trkpt>
      <trkpt lat="42.16447" lon="-1.57721">
        <ele>271.84</ele>
        <time>2021-08-04T10:32:46Z</time>
      </trkpt>
      <trkpt lat="42.1654" lon="-1.57856">
        <ele>268.28</ele>
        <time>2021-08-04T10:32:59Z</time>
      </trkpt>
      <trkpt lat="42.16613" lon="-1.57964">
        <ele>268.33</ele>
        <time>2021-08-04T10:33:07Z</time>
      </trkpt>
      <trkpt lat="42.16778" lon="-1.58206">
        <ele>270.14</ele>
        <time>2021-08-04T10:33:23Z</time>
      </trkpt>
      <trkpt lat="42.16905" lon="-1.58403">
        <ele>268.62</ele>
        <time>2021-08-04T10:33:37Z</time>
      </trkpt>
      <trkpt lat="42.17006" lon="-1.58606">
        <ele>269.33</ele>
        <time>2021-08-04T10:33:50Z</time>
      </trkpt>
      <trkpt lat="42.17107" lon="-1.58805">
        <ele>270.74</ele>
        <time>2021-08-04T10:34:04Z</time>
      </trkpt>
      <trkpt lat="42.17169" lon="-1.58923">
        <ele>270.34</ele>
        <time>2021-08-04T10:34:14Z</time>
      </trkpt>
      <trkpt lat="42.17204" lon="-1.59067">
        <ele>268.77</ele>
        <time>2021-08-04T10:34:25Z</time>
      </trkpt>
      <trkpt lat="42.17213" lon="-1.59124">
        <ele>267.41</ele>
        <time>2021-08-04T10:34:33Z</time>
      </trkpt>
      <trkpt lat="42.17233" lon="-1.59158">
        <ele>265.67</ele>
        <time>2021-08-04T10:34:43Z</time>
      </trkpt>
      <trkpt lat="42.17281" lon="-1.59237">
        <ele>265.57</ele>
        <time>2021-08-04T10:34:54Z</time>
      </trkpt>
      <trkpt lat="42.17316" lon="-1.59295">
        <ele>265.59</ele>
        <time>2021-08-04T10:35:01Z</time>
      </trkpt>
      <trkpt lat="42.17372" lon="-1.59353">
        <ele>264.94</ele>
        <time>2021-08-04T10:35:13Z</time>
      </trkpt>
      <trkpt lat="42.17431" lon="-1.5942">
        <ele>265.18</ele>
        <time>2021-08-04T10:35:28Z</time>
      </trkpt>
      <trkpt lat="42.17471" lon="-1.59482">
        <ele>265.37</ele>
        <time>2021-08-04T10:35:40Z</time>
      </trkpt>
      <trkpt lat="42.1751" lon="-1.59542">
        <ele>265.89</ele>
        <time>2021-08-04T10:35:53Z</time>
      </trkpt>
      <trkpt lat="42.17549" lon="-1.59579">
        <ele>266</ele>
        <time>2021-08-04T10:36:04Z</time>
      </trkpt>
      <trkpt lat="42.1759" lon="-1.59603">
        <ele>266.47</ele>
        <time>2021-08-04T10:36:16Z</time>
      </trkpt>
      <trkpt lat="42.17631" lon="-1.59579">
        <ele>267.39</ele>
        <time>2021-08-04T10:36:26Z</time>
      </trkpt>
      <trkpt lat="42.17653" lon="-1.5959">
        <ele>268.49</ele>
        <time>2021-08-04T10:36:31Z</time>
      </trkpt>
      <trkpt lat="42.1768" lon="-1.59631">
        <ele>271.28</ele>
        <time>2021-08-04T10:36:41Z</time>
      </trkpt>
      <trkpt lat="42.17696" lon="-1.59637">
        <ele>272.5</ele>
        <time>2021-08-04T10:36:57Z</time>
      </trkpt>
      <trkpt lat="42.17724" lon="-1.59664">
        <ele>272.86</ele>
        <time>2021-08-04T10:37:06Z</time>
      </trkpt>
      <trkpt lat="42.17749" lon="-1.59662">
        <ele>273.1</ele>
        <time>2021-08-04T10:37:15Z</time>
      </trkpt>
      <trkpt lat="42.1775" lon="-1.59661">
        <ele>273.6</ele>
        <time>2021-08-04T10:37:26Z</time>
      </trkpt>
      <trkpt lat="42.1776" lon="-1.5962">
        <ele>274.63</ele>
        <time>2021-08-04T10:37:47Z</time>
      </trkpt>
      <trkpt lat="42.1776" lon="-1.59617">
        <ele>276.07</ele>
        <time>2021-08-04T10:38:07Z</time>
      </trkpt>
      <trkpt lat="42.17761" lon="-1.59616">
        <ele>276.45</ele>
        <time>2021-08-04T10:38:41Z</time>
      </trkpt>
      <trkpt lat="42.17766" lon="-1.59605">
        <ele>276.44</ele>
        <time>2021-08-04T10:38:52Z</time>
      </trkpt>
      <trkpt lat="42.17756" lon="-1.5963">
        <ele>276.29</ele>
        <time>2021-08-04T10:39:06Z</time>
      </trkpt>
      <trkpt lat="42.17756" lon="-1.59641">
        <ele>275.15</ele>
        <time>2021-08-04T10:39:20Z</time>
      </trkpt>
      <trkpt lat="42.17759" lon="-1.59635">
        <ele>274.51</ele>
        <time>2021-08-04T10:39:40Z</time>
      </trkpt>
      <trkpt lat="42.17759" lon="-1.59634">
        <ele>274.2</ele>
        <time>2021-08-04T10:40:04Z</time>
      </trkpt>
      <trkpt lat="42.17759" lon="-1.59634">
        <ele>273.63</ele>
        <time>2021-08-04T10:40:18Z</time>
      </trkpt>
      <trkpt lat="42.17759" lon="-1.59621">
        <ele>273.77</ele>
        <time>2021-08-04T10:40:29Z</time>
      </trkpt>
      <trkpt lat="42.17757" lon="-1.59624">
        <ele>273.91</ele>
        <time>2021-08-04T10:40:31Z</time>
      </trkpt>
      <trkpt lat="42.17751" lon="-1.59626">
        <ele>274.12</ele>
        <time>2021-08-04T10:40:35Z</time>
      </trkpt>
      <trkpt lat="42.17749" lon="-1.59625">
        <ele>275.5</ele>
        <time>2021-08-04T10:40:54Z</time>
      </trkpt>
      <trkpt lat="42.1775" lon="-1.59626">
        <ele>276.3</ele>
        <time>2021-08-04T10:41:51Z</time>
      </trkpt>
      <trkpt lat="42.17747" lon="-1.59647">
        <ele>276.2</ele>
        <time>2021-08-04T10:41:56Z</time>
      </trkpt>
      <trkpt lat="42.17726" lon="-1.59665">
        <ele>275.77</ele>
        <time>2021-08-04T10:42:04Z</time>
      </trkpt>
      <trkpt lat="42.17723" lon="-1.59662">
        <ele>275.74</ele>
        <time>2021-08-04T10:42:05Z</time>
      </trkpt>
      <trkpt lat="42.17694" lon="-1.59637">
        <ele>275.09</ele>
        <time>2021-08-04T10:42:15Z</time>
      </trkpt>
      <trkpt lat="42.17677" lon="-1.59622">
        <ele>274.2</ele>
        <time>2021-08-04T10:42:31Z</time>
      </trkpt>
      <trkpt lat="42.17664" lon="-1.596">
        <ele>273.9</ele>
        <time>2021-08-04T10:42:37Z</time>
      </trkpt>
      <trkpt lat="42.17637" lon="-1.59576">
        <ele>272.01</ele>
        <time>2021-08-04T10:42:46Z</time>
      </trkpt>
      <trkpt lat="42.17634" lon="-1.59579">
        <ele>270.48</ele>
        <time>2021-08-04T10:42:58Z</time>
      </trkpt>
      <trkpt lat="42.17627" lon="-1.59576">
        <ele>270.03</ele>
        <time>2021-08-04T10:43:03Z</time>
      </trkpt>
      <trkpt lat="42.17634" lon="-1.59583">
        <ele>269.48</ele>
        <time>2021-08-04T10:43:11Z</time>
      </trkpt>
      <trkpt lat="42.17649" lon="-1.59592">
        <ele>270.05</ele>
        <time>2021-08-04T10:43:18Z</time>
      </trkpt>
      <trkpt lat="42.17675" lon="-1.59626">
        <ele>271.36</ele>
        <time>2021-08-04T10:43:23Z</time>
      </trkpt>
      <trkpt lat="42.17707" lon="-1.59649">
        <ele>273.12</ele>
        <time>2021-08-04T10:43:28Z</time>
      </trkpt>
      <trkpt lat="42.17726" lon="-1.59667">
        <ele>273.68</ele>
        <time>2021-08-04T10:43:31Z</time>
      </trkpt>
      <trkpt lat="42.17754" lon="-1.59657">
        <ele>274.33</ele>
        <time>2021-08-04T10:43:37Z</time>
      </trkpt>
      <trkpt lat="42.17755" lon="-1.5965">
        <ele>274.35</ele>
        <time>2021-08-04T10:43:38Z</time>
      </trkpt>
      <trkpt lat="42.17772" lon="-1.59584">
        <ele>275.54</ele>
        <time>2021-08-04T10:43:48Z</time>
      </trkpt>
      <trkpt lat="42.17775" lon="-1.59522">
        <ele>279.28</ele>
        <time>2021-08-04T10:43:55Z</time>
      </trkpt>
      <trkpt lat="42.17767" lon="-1.59474">
        <ele>283.52</ele>
        <time>2021-08-04T10:44:01Z</time>
      </trkpt>
      <trkpt lat="42.17742" lon="-1.59454">
        <ele>287.01</ele>
        <time>2021-08-04T10:44:04Z</time>
      </trkpt>
      <trkpt lat="42.17702" lon="-1.59423">
        <ele>291.64</ele>
        <time>2021-08-04T10:44:08Z</time>
      </trkpt>
      <trkpt lat="42.1768" lon="-1.59394">
        <ele>295.4</ele>
        <time>2021-08-04T10:44:11Z</time>
      </trkpt>
      <trkpt lat="42.17675" lon="-1.59352">
        <ele>300.11</ele>
        <time>2021-08-04T10:44:15Z</time>
      </trkpt>
      <trkpt lat="42.17692" lon="-1.59326">
        <ele>303.63</ele>
        <time>2021-08-04T10:44:18Z</time>
      </trkpt>
      <trkpt lat="42.177" lon="-1.59318">
        <ele>304.69</ele>
        <time>2021-08-04T10:44:19Z</time>
      </trkpt>
      <trkpt lat="42.17722" lon="-1.59291">
        <ele>307.73</ele>
        <time>2021-08-04T10:44:22Z</time>
      </trkpt>
      <trkpt lat="42.17757" lon="-1.59264">
        <ele>311.99</ele>
        <time>2021-08-04T10:44:26Z</time>
      </trkpt>
      <trkpt lat="42.17771" lon="-1.59247">
        <ele>313.42</ele>
        <time>2021-08-04T10:44:28Z</time>
      </trkpt>
      <trkpt lat="42.17805" lon="-1.59193">
        <ele>317.36</ele>
        <time>2021-08-04T10:44:34Z</time>
      </trkpt>
      <trkpt lat="42.17815" lon="-1.59172">
        <ele>320.09</ele>
        <time>2021-08-04T10:44:41Z</time>
      </trkpt>
      <trkpt lat="42.17821" lon="-1.59165">
        <ele>320.91</ele>
        <time>2021-08-04T10:44:51Z</time>
      </trkpt>
      <trkpt lat="42.17823" lon="-1.5916">
        <ele>320.94</ele>
        <time>2021-08-04T10:44:52Z</time>
      </trkpt>
      <trkpt lat="42.17839" lon="-1.59123">
        <ele>321.53</ele>
        <time>2021-08-04T10:44:56Z</time>
      </trkpt>
      <trkpt lat="42.17882" lon="-1.59091">
        <ele>323.51</ele>
        <time>2021-08-04T10:45:01Z</time>
      </trkpt>
      <trkpt lat="42.17916" lon="-1.59082">
        <ele>325.93</ele>
        <time>2021-08-04T10:45:04Z</time>
      </trkpt>
      <trkpt lat="42.17966" lon="-1.59083">
        <ele>329.44</ele>
        <time>2021-08-04T10:45:08Z</time>
      </trkpt>
      <trkpt lat="42.18024" lon="-1.59054">
        <ele>333.97</ele>
        <time>2021-08-04T10:45:13Z</time>
      </trkpt>
      <trkpt lat="42.18081" lon="-1.5901">
        <ele>339.25</ele>
        <time>2021-08-04T10:45:19Z</time>
      </trkpt>
      <trkpt lat="42.1811" lon="-1.58991">
        <ele>342.19</ele>
        <time>2021-08-04T10:45:22Z</time>
      </trkpt>
      <trkpt lat="42.18141" lon="-1.58949">
        <ele>345.58</ele>
        <time>2021-08-04T10:45:26Z</time>
      </trkpt>
      <trkpt lat="42.18178" lon="-1.58867">
        <ele>349.95</ele>
        <time>2021-08-04T10:45:32Z</time>
      </trkpt>
      <trkpt lat="42.18198" lon="-1.58806">
        <ele>352.93</ele>
        <time>2021-08-04T10:45:37Z</time>
      </trkpt>
      <trkpt lat="42.18199" lon="-1.58794">
        <ele>353.36</ele>
        <time>2021-08-04T10:45:38Z</time>
      </trkpt>
      <trkpt lat="42.182" lon="-1.58771">
        <ele>354.42</ele>
        <time>2021-08-04T10:45:40Z</time>
      </trkpt>
      <trkpt lat="42.18218" lon="-1.58705">
        <ele>359.09</ele>
        <time>2021-08-04T10:45:47Z</time>
      </trkpt>
      <trkpt lat="42.18263" lon="-1.58686">
        <ele>362.07</ele>
        <time>2021-08-04T10:45:52Z</time>
      </trkpt>
      <trkpt lat="42.18367" lon="-1.58644">
        <ele>363.67</ele>
        <time>2021-08-04T10:46:02Z</time>
      </trkpt>
      <trkpt lat="42.18388" lon="-1.58631">
        <ele>364.02</ele>
        <time>2021-08-04T10:46:04Z</time>
      </trkpt>
      <trkpt lat="42.1846" lon="-1.58639">
        <ele>366.21</ele>
        <time>2021-08-04T10:46:11Z</time>
      </trkpt>
      <trkpt lat="42.18509" lon="-1.58619">
        <ele>368.72</ele>
        <time>2021-08-04T10:46:16Z</time>
      </trkpt>
      <trkpt lat="42.18555" lon="-1.58625">
        <ele>370.53</ele>
        <time>2021-08-04T10:46:21Z</time>
      </trkpt>
      <trkpt lat="42.18569" lon="-1.58661">
        <ele>372.76</ele>
        <time>2021-08-04T10:46:24Z</time>
      </trkpt>
      <trkpt lat="42.18613" lon="-1.58734">
        <ele>377.66</ele>
        <time>2021-08-04T10:46:30Z</time>
      </trkpt>
      <trkpt lat="42.18648" lon="-1.58774">
        <ele>381.01</ele>
        <time>2021-08-04T10:46:33Z</time>
      </trkpt>
      <trkpt lat="42.18682" lon="-1.58818">
        <ele>384.72</ele>
        <time>2021-08-04T10:46:36Z</time>
      </trkpt>
      <trkpt lat="42.18714" lon="-1.58859">
        <ele>387.85</ele>
        <time>2021-08-04T10:46:39Z</time>
      </trkpt>
      <trkpt lat="42.18724" lon="-1.5887">
        <ele>388.48</ele>
        <time>2021-08-04T10:46:40Z</time>
      </trkpt>
      <trkpt lat="42.18747" lon="-1.58883">
        <ele>389.14</ele>
        <time>2021-08-04T10:46:42Z</time>
      </trkpt>
      <trkpt lat="42.1884" lon="-1.58882">
        <ele>392.15</ele>
        <time>2021-08-04T10:46:49Z</time>
      </trkpt>
      <trkpt lat="42.18906" lon="-1.58872">
        <ele>395.44</ele>
        <time>2021-08-04T10:46:54Z</time>
      </trkpt>
      <trkpt lat="42.19012" lon="-1.58859">
        <ele>397.72</ele>
        <time>2021-08-04T10:47:03Z</time>
      </trkpt>
      <trkpt lat="42.19056" lon="-1.58835">
        <ele>399.37</ele>
        <time>2021-08-04T10:47:10Z</time>
      </trkpt>
      <trkpt lat="42.1906" lon="-1.58782">
        <ele>400.68</ele>
        <time>2021-08-04T10:47:15Z</time>
      </trkpt>
      <trkpt lat="42.19088" lon="-1.58785">
        <ele>401.22</ele>
        <time>2021-08-04T10:47:19Z</time>
      </trkpt>
      <trkpt lat="42.19094" lon="-1.58794">
        <ele>401.22</ele>
        <time>2021-08-04T10:47:20Z</time>
      </trkpt>
      <trkpt lat="42.19143" lon="-1.58833">
        <ele>401.94</ele>
        <time>2021-08-04T10:47:25Z</time>
      </trkpt>
      <trkpt lat="42.19278" lon="-1.58827">
        <ele>406.18</ele>
        <time>2021-08-04T10:47:33Z</time>
      </trkpt>
      <trkpt lat="42.19377" lon="-1.58815">
        <ele>409.26</ele>
        <time>2021-08-04T10:47:38Z</time>
      </trkpt>
      <trkpt lat="42.19459" lon="-1.58808">
        <ele>412.33</ele>
        <time>2021-08-04T10:47:42Z</time>
      </trkpt>
      <trkpt lat="42.19556" lon="-1.58805">
        <ele>415.44</ele>
        <time>2021-08-04T10:47:47Z</time>
      </trkpt>
      <trkpt lat="42.19668" lon="-1.5886">
        <ele>415.77</ele>
        <time>2021-08-04T10:47:53Z</time>
      </trkpt>
      <trkpt lat="42.19919" lon="-1.591">
        <ele>415.96</ele>
        <time>2021-08-04T10:48:06Z</time>
      </trkpt>
      <trkpt lat="42.20111" lon="-1.59347">
        <ele>416.42</ele>
        <time>2021-08-04T10:48:17Z</time>
      </trkpt>
      <trkpt lat="42.20162" lon="-1.59511">
        <ele>417.72</ele>
        <time>2021-08-04T10:48:23Z</time>
      </trkpt>
      <trkpt lat="42.20157" lon="-1.59603">
        <ele>418.72</ele>
        <time>2021-08-04T10:48:27Z</time>
      </trkpt>
      <trkpt lat="42.2016" lon="-1.59641">
        <ele>418.14</ele>
        <time>2021-08-04T10:48:32Z</time>
      </trkpt>
      <trkpt lat="42.20174" lon="-1.59644">
        <ele>416.28</ele>
        <time>2021-08-04T10:48:39Z</time>
      </trkpt>
      <trkpt lat="42.20187" lon="-1.5963">
        <ele>415.16</ele>
        <time>2021-08-04T10:48:49Z</time>
      </trkpt>
      <trkpt lat="42.2022" lon="-1.59588">
        <ele>414.93</ele>
        <time>2021-08-04T10:48:56Z</time>
      </trkpt>
      <trkpt lat="42.203" lon="-1.59467">
        <ele>414.74</ele>
        <time>2021-08-04T10:49:06Z</time>
      </trkpt>
      <trkpt lat="42.20389" lon="-1.5934">
        <ele>415.53</ele>
        <time>2021-08-04T10:49:16Z</time>
      </trkpt>
      <trkpt lat="42.20445" lon="-1.59257">
        <ele>418.8</ele>
        <time>2021-08-04T10:49:23Z</time>
      </trkpt>
      <trkpt lat="42.20491" lon="-1.59189">
        <ele>422.58</ele>
        <time>2021-08-04T10:49:28Z</time>
      </trkpt>
      <trkpt lat="42.20523" lon="-1.59127">
        <ele>425.6</ele>
        <time>2021-08-04T10:49:32Z</time>
      </trkpt>
      <trkpt lat="42.20547" lon="-1.59053">
        <ele>429.36</ele>
        <time>2021-08-04T10:49:37Z</time>
      </trkpt>
      <trkpt lat="42.20565" lon="-1.58991">
        <ele>433.14</ele>
        <time>2021-08-04T10:49:41Z</time>
      </trkpt>
      <trkpt lat="42.2058" lon="-1.58941">
        <ele>436.46</ele>
        <time>2021-08-04T10:49:44Z</time>
      </trkpt>
      <trkpt lat="42.20591" lon="-1.58886">
        <ele>439.64</ele>
        <time>2021-08-04T10:49:47Z</time>
      </trkpt>
      <trkpt lat="42.20604" lon="-1.58815">
        <ele>443.57</ele>
        <time>2021-08-04T10:49:51Z</time>
      </trkpt>
      <trkpt lat="42.20614" lon="-1.58765">
        <ele>446.97</ele>
        <time>2021-08-04T10:49:54Z</time>
      </trkpt>
      <trkpt lat="42.20627" lon="-1.58721">
        <ele>450.9</ele>
        <time>2021-08-04T10:49:57Z</time>
      </trkpt>
      <trkpt lat="42.20642" lon="-1.58681">
        <ele>453.94</ele>
        <time>2021-08-04T10:50:00Z</time>
      </trkpt>
      <trkpt lat="42.20647" lon="-1.58632">
        <ele>457.87</ele>
        <time>2021-08-04T10:50:04Z</time>
      </trkpt>
    </trkseg>
  </trk>
</gpx>